<?xml version="1.0" encoding="UTF-8"?>
<gpx version="1.1" creator="2bulu-scraper" xmlns="http://www.topografix.com/GPX/1/1">
  <metadata><name>宜宾流杯池-催科山</name><desc>source: 2bulu.com trackId=72898710; exported 2026-08-30T14:30:17.409Z</desc></metadata>
  <wpt lat="28.7830972" lon="104.615064"><ele>243</ele><name>
        </name></wpt>
  <wpt lat="28.7831249" lon="104.6151581"><ele>286</ele><name>
        </name></wpt>
  <wpt lat="28.7840536" lon="104.6172802"><ele>257</ele><name>
        </name></wpt>
  <wpt lat="28.784586" lon="104.6181107"><ele>327</ele><name>
        </name></wpt>
  <wpt lat="28.7845884" lon="104.6194368"><ele>318</ele><name>
        </name></wpt>
  <wpt lat="28.7846012" lon="104.6195403"><ele>321</ele><name>
        </name></wpt>
  <wpt lat="28.7846355" lon="104.6219788"><ele>437</ele><name>
        </name></wpt>
  <wpt lat="28.7846887" lon="104.6232983"><ele>423</ele><name>
        </name></wpt>
  <wpt lat="28.784802" lon="104.6241013"><ele>441</ele><name>
        </name></wpt>
  <wpt lat="28.7847997" lon="104.6242704"><ele>442</ele><name>
        </name></wpt>
  <wpt lat="28.7843869" lon="104.6251196"><ele>452</ele><name>
        </name></wpt>
  <wpt lat="28.7877154" lon="104.6307516"><ele>473</ele><name>
        </name></wpt>
  <wpt lat="28.788797" lon="104.6320226"><ele>477</ele><name>
        </name></wpt>
  <wpt lat="28.788797" lon="104.6320226"><ele>476</ele><name>
        </name></wpt>
  <wpt lat="28.788797" lon="104.6320226"><ele>476</ele><name>
        </name></wpt>
  <wpt lat="28.7887177" lon="104.631994"><ele>478</ele><name>
        </name></wpt>
  <wpt lat="28.7887177" lon="104.631994"><ele>479</ele><name>
        </name></wpt>
  <wpt lat="28.7894822" lon="104.6329421"><ele>475</ele><name>
        </name></wpt>
  <wpt lat="28.7966462" lon="104.6426852"><ele>448</ele><name>
        </name></wpt>
  <wpt lat="28.7936793" lon="104.639719"><ele>420</ele><name>
        </name></wpt>
  <wpt lat="28.7921559" lon="104.6386038"><ele>397</ele><name>
        </name></wpt>
  <wpt lat="28.7921559" lon="104.6386038"><ele>397</ele><name>
        </name></wpt>
  <wpt lat="28.7877903" lon="104.6403679"><ele>270</ele><name>
        </name></wpt>
  <wpt lat="28.7789726" lon="104.6289417"><ele>243</ele><name>
        </name></wpt>
  <wpt lat="28.7787815" lon="104.6286804"><ele>243</ele><name>
        </name></wpt>
  <wpt lat="28.7787815" lon="104.6286804"><ele>244</ele><name>
        </name></wpt>
  <wpt lat="28.77887" lon="104.628666"><ele>244</ele><name>
        </name></wpt>
  <wpt lat="28.7801719" lon="104.6226927"><ele>248</ele><name>
        </name></wpt>
  <wpt lat="28.7807391" lon="104.6220133"><ele>245</ele><name>
        </name></wpt>
  <wpt lat="28.78061" lon="104.6187587"><ele>257</ele><name>
        </name></wpt>
  <wpt lat="28.7805647" lon="104.618104"><ele>253</ele><name>
        </name></wpt>
  <trk><name>宜宾流杯池-催科山</name>
      <trkseg>
        <trkpt lat="28.7839592" lon="104.6146325"><ele>239.89</ele><time>2025-09-26T03:03:12.000Z</time></trkpt>
        <trkpt lat="28.7838851" lon="104.6147332"><ele>239.89</ele><time>2025-09-26T03:03:23.000Z</time></trkpt>
        <trkpt lat="28.783797" lon="104.6148103"><ele>239.61</ele><time>2025-09-26T03:03:31.000Z</time></trkpt>
        <trkpt lat="28.7837094" lon="104.6148749"><ele>239.82</ele><time>2025-09-26T03:03:39.000Z</time></trkpt>
        <trkpt lat="28.7836167" lon="104.614926"><ele>240.41</ele><time>2025-09-26T03:03:47.000Z</time></trkpt>
        <trkpt lat="28.7835232" lon="104.6149367"><ele>240.9</ele><time>2025-09-26T03:03:53.000Z</time></trkpt>
        <trkpt lat="28.7834346" lon="104.6148913"><ele>241.3</ele><time>2025-09-26T03:04:01.000Z</time></trkpt>
        <trkpt lat="28.7833461" lon="104.614833"><ele>242.17</ele><time>2025-09-26T03:04:09.000Z</time></trkpt>
        <trkpt lat="28.7832549" lon="104.6148365"><ele>242.62</ele><time>2025-09-26T03:04:17.000Z</time></trkpt>
        <trkpt lat="28.7831599" lon="104.6148749"><ele>243.45</ele><time>2025-09-26T03:04:27.000Z</time></trkpt>
        <trkpt lat="28.7830904" lon="104.6149565"><ele>243.95</ele><time>2025-09-26T03:04:35.000Z</time></trkpt>
        <trkpt lat="28.7830972" lon="104.615064"><ele>244.43</ele><time>2025-09-26T03:04:45.000Z</time></trkpt>
        <trkpt lat="28.7831398" lon="104.6151675"><ele>243.64</ele><time>2025-09-26T03:05:31.000Z</time></trkpt>
        <trkpt lat="28.7832055" lon="104.6152617"><ele>243.45</ele><time>2025-09-26T03:05:43.000Z</time></trkpt>
        <trkpt lat="28.783209" lon="104.6153745"><ele>243.58</ele><time>2025-09-26T03:05:51.000Z</time></trkpt>
        <trkpt lat="28.7832057" lon="104.6154821"><ele>243.67</ele><time>2025-09-26T03:05:59.000Z</time></trkpt>
        <trkpt lat="28.78321" lon="104.6155906"><ele>243.55</ele><time>2025-09-26T03:06:09.000Z</time></trkpt>
        <trkpt lat="28.7832299" lon="104.6157009"><ele>244.05</ele><time>2025-09-26T03:06:17.000Z</time></trkpt>
        <trkpt lat="28.7832684" lon="104.6158148"><ele>245.2</ele><time>2025-09-26T03:06:25.000Z</time></trkpt>
        <trkpt lat="28.7833284" lon="104.6159096"><ele>245.91</ele><time>2025-09-26T03:06:35.000Z</time></trkpt>
        <trkpt lat="28.7833813" lon="104.6160068"><ele>247.07</ele><time>2025-09-26T03:06:43.000Z</time></trkpt>
        <trkpt lat="28.7834227" lon="104.616106"><ele>248.01</ele><time>2025-09-26T03:06:51.000Z</time></trkpt>
        <trkpt lat="28.7834775" lon="104.6162066"><ele>248.33</ele><time>2025-09-26T03:06:59.000Z</time></trkpt>
        <trkpt lat="28.7835413" lon="104.6162928"><ele>249.14</ele><time>2025-09-26T03:07:07.000Z</time></trkpt>
        <trkpt lat="28.7836174" lon="104.6163797"><ele>250.03</ele><time>2025-09-26T03:07:15.000Z</time></trkpt>
        <trkpt lat="28.7836809" lon="104.6164717"><ele>251.51</ele><time>2025-09-26T03:07:23.000Z</time></trkpt>
        <trkpt lat="28.7837203" lon="104.6165896"><ele>252.1</ele><time>2025-09-26T03:07:31.000Z</time></trkpt>
        <trkpt lat="28.7837518" lon="104.6167044"><ele>253.37</ele><time>2025-09-26T03:07:39.000Z</time></trkpt>
        <trkpt lat="28.7837782" lon="104.6168213"><ele>254.59</ele><time>2025-09-26T03:07:47.000Z</time></trkpt>
        <trkpt lat="28.783812" lon="104.6169333"><ele>255.36</ele><time>2025-09-26T03:07:55.000Z</time></trkpt>
        <trkpt lat="28.7838587" lon="104.6170409"><ele>256.15</ele><time>2025-09-26T03:08:03.000Z</time></trkpt>
        <trkpt lat="28.7839238" lon="104.6171228"><ele>256.41</ele><time>2025-09-26T03:08:11.000Z</time></trkpt>
        <trkpt lat="28.7839956" lon="104.617204"><ele>255.82</ele><time>2025-09-26T03:08:19.000Z</time></trkpt>
        <trkpt lat="28.7840536" lon="104.6172802"><ele>255.96</ele><time>2025-09-26T03:08:27.000Z</time></trkpt>
        <trkpt lat="28.7840536" lon="104.6172802"><ele>255.96</ele><time>2025-09-26T03:09:48.000Z</time></trkpt>
        <trkpt lat="28.7841423" lon="104.6173346"><ele>256.54</ele><time>2025-09-26T03:09:54.000Z</time></trkpt>
        <trkpt lat="28.7841423" lon="104.6173346"><ele>256.54</ele><time>2025-09-26T03:10:15.000Z</time></trkpt>
        <trkpt lat="28.7842123" lon="104.617408"><ele>257.09</ele><time>2025-09-26T03:10:23.000Z</time></trkpt>
        <trkpt lat="28.7842575" lon="104.617509"><ele>257.4</ele><time>2025-09-26T03:10:35.000Z</time></trkpt>
        <trkpt lat="28.7842861" lon="104.6176102"><ele>258.21</ele><time>2025-09-26T03:10:45.000Z</time></trkpt>
        <trkpt lat="28.7842951" lon="104.6177204"><ele>259.12</ele><time>2025-09-26T03:10:55.000Z</time></trkpt>
        <trkpt lat="28.7842995" lon="104.6178304"><ele>261.26</ele><time>2025-09-26T03:11:09.000Z</time></trkpt>
        <trkpt lat="28.784316" lon="104.617939"><ele>263.52</ele><time>2025-09-26T03:11:21.000Z</time></trkpt>
        <trkpt lat="28.7843711" lon="104.6180258"><ele>266.49</ele><time>2025-09-26T03:11:33.000Z</time></trkpt>
        <trkpt lat="28.784427" lon="104.6181117"><ele>270.82</ele><time>2025-09-26T03:11:47.000Z</time></trkpt>
        <trkpt lat="28.7845149" lon="104.6181365"><ele>274.35</ele><time>2025-09-26T03:11:59.000Z</time></trkpt>
        <trkpt lat="28.7845149" lon="104.6181365"><ele>274.35</ele><time>2025-09-26T03:12:48.000Z</time></trkpt>
        <trkpt lat="28.7845617" lon="104.6182242"><ele>276.29</ele><time>2025-09-26T03:12:54.000Z</time></trkpt>
        <trkpt lat="28.7845617" lon="104.6182242"><ele>276.29</ele><time>2025-09-26T03:13:15.000Z</time></trkpt>
        <trkpt lat="28.7845624" lon="104.6183314"><ele>279.4</ele><time>2025-09-26T03:13:29.000Z</time></trkpt>
        <trkpt lat="28.7845635" lon="104.6184352"><ele>283.75</ele><time>2025-09-26T03:13:41.000Z</time></trkpt>
        <trkpt lat="28.7845687" lon="104.6185488"><ele>288.41</ele><time>2025-09-26T03:13:53.000Z</time></trkpt>
        <trkpt lat="28.7845769" lon="104.6186549"><ele>293.77</ele><time>2025-09-26T03:14:05.000Z</time></trkpt>
        <trkpt lat="28.7845675" lon="104.6187666"><ele>296.9</ele><time>2025-09-26T03:14:19.000Z</time></trkpt>
        <trkpt lat="28.7845635" lon="104.6188744"><ele>300.12</ele><time>2025-09-26T03:14:29.000Z</time></trkpt>
        <trkpt lat="28.7845672" lon="104.6189893"><ele>302.53</ele><time>2025-09-26T03:14:43.000Z</time></trkpt>
        <trkpt lat="28.7845708" lon="104.6191075"><ele>303.42</ele><time>2025-09-26T03:14:55.000Z</time></trkpt>
        <trkpt lat="28.7845753" lon="104.6192147"><ele>305.26</ele><time>2025-09-26T03:15:15.000Z</time></trkpt>
        <trkpt lat="28.7845841" lon="104.6193277"><ele>307.96</ele><time>2025-09-26T03:15:33.000Z</time></trkpt>
        <trkpt lat="28.7845884" lon="104.6194368"><ele>310.94</ele><time>2025-09-26T03:15:47.000Z</time></trkpt>
        <trkpt lat="28.7846012" lon="104.6195403"><ele>314.28</ele><time>2025-09-26T03:16:09.000Z</time></trkpt>
        <trkpt lat="28.7846006" lon="104.6196474"><ele>316.75</ele><time>2025-09-26T03:16:37.000Z</time></trkpt>
        <trkpt lat="28.7845936" lon="104.6197535"><ele>318.72</ele><time>2025-09-26T03:16:51.000Z</time></trkpt>
        <trkpt lat="28.7845864" lon="104.619868"><ele>321.46</ele><time>2025-09-26T03:17:03.000Z</time></trkpt>
        <trkpt lat="28.784585" lon="104.6199764"><ele>324.74</ele><time>2025-09-26T03:17:15.000Z</time></trkpt>
        <trkpt lat="28.784592" lon="104.6200912"><ele>328.1</ele><time>2025-09-26T03:17:27.000Z</time></trkpt>
        <trkpt lat="28.7845896" lon="104.6201994"><ele>331.12</ele><time>2025-09-26T03:17:43.000Z</time></trkpt>
        <trkpt lat="28.7845848" lon="104.6203046"><ele>333.84</ele><time>2025-09-26T03:17:59.000Z</time></trkpt>
        <trkpt lat="28.7845862" lon="104.6204201"><ele>336.91</ele><time>2025-09-26T03:18:15.000Z</time></trkpt>
        <trkpt lat="28.7845851" lon="104.6205318"><ele>340.21</ele><time>2025-09-26T03:18:31.000Z</time></trkpt>
        <trkpt lat="28.7845818" lon="104.6206467"><ele>342.9</ele><time>2025-09-26T03:18:47.000Z</time></trkpt>
        <trkpt lat="28.784583" lon="104.6207544"><ele>346.24</ele><time>2025-09-26T03:19:03.000Z</time></trkpt>
        <trkpt lat="28.7845823" lon="104.620861"><ele>349.55</ele><time>2025-09-26T03:19:19.000Z</time></trkpt>
        <trkpt lat="28.7845899" lon="104.6209761"><ele>352.91</ele><time>2025-09-26T03:19:35.000Z</time></trkpt>
        <trkpt lat="28.7846098" lon="104.6210899"><ele>355.98</ele><time>2025-09-26T03:19:49.000Z</time></trkpt>
        <trkpt lat="28.7846091" lon="104.6212"><ele>358.99</ele><time>2025-09-26T03:20:05.000Z</time></trkpt>
        <trkpt lat="28.7846095" lon="104.6213114"><ele>361.63</ele><time>2025-09-26T03:20:21.000Z</time></trkpt>
        <trkpt lat="28.7846054" lon="104.6214174"><ele>365.79</ele><time>2025-09-26T03:20:35.000Z</time></trkpt>
        <trkpt lat="28.7846105" lon="104.621525"><ele>370.15</ele><time>2025-09-26T03:20:53.000Z</time></trkpt>
        <trkpt lat="28.7846105" lon="104.621525"><ele>370.15</ele><time>2025-09-26T03:21:08.000Z</time></trkpt>
        <trkpt lat="28.7846205" lon="104.6216305"><ele>373.42</ele><time>2025-09-26T03:21:12.000Z</time></trkpt>
        <trkpt lat="28.7846205" lon="104.6216305"><ele>373.42</ele><time>2025-09-26T03:21:43.000Z</time></trkpt>
        <trkpt lat="28.7846252" lon="104.6217362"><ele>376.42</ele><time>2025-09-26T03:21:59.000Z</time></trkpt>
        <trkpt lat="28.7846347" lon="104.6218465"><ele>380.23</ele><time>2025-09-26T03:22:15.000Z</time></trkpt>
        <trkpt lat="28.7846379" lon="104.6219548"><ele>383.77</ele><time>2025-09-26T03:22:51.000Z</time></trkpt>
        <trkpt lat="28.7846379" lon="104.6219548"><ele>383.77</ele><time>2025-09-26T03:24:00.000Z</time></trkpt>
        <trkpt lat="28.7846379" lon="104.6219548"><ele>383.77</ele><time>2025-09-26T03:24:02.000Z</time></trkpt>
        <trkpt lat="28.7846379" lon="104.6219548"><ele>383.77</ele><time>2025-09-26T03:25:28.000Z</time></trkpt>
        <trkpt lat="28.7846379" lon="104.6219548"><ele>383.77</ele><time>2025-09-26T03:25:32.000Z</time></trkpt>
        <trkpt lat="28.7846379" lon="104.6219548"><ele>383.77</ele><time>2025-09-26T03:25:50.000Z</time></trkpt>
        <trkpt lat="28.7846379" lon="104.6219548"><ele>383.77</ele><time>2025-09-26T03:25:54.000Z</time></trkpt>
        <trkpt lat="28.7846379" lon="104.6219548"><ele>383.77</ele><time>2025-09-26T03:26:48.000Z</time></trkpt>
        <trkpt lat="28.7846448" lon="104.6220672"><ele>386.4</ele><time>2025-09-26T03:26:52.000Z</time></trkpt>
        <trkpt lat="28.7846448" lon="104.6220672"><ele>386.4</ele><time>2025-09-26T03:27:51.000Z</time></trkpt>
        <trkpt lat="28.7846517" lon="104.6221792"><ele>393.02</ele><time>2025-09-26T03:28:07.000Z</time></trkpt>
        <trkpt lat="28.7846484" lon="104.6222975"><ele>396.98</ele><time>2025-09-26T03:28:25.000Z</time></trkpt>
        <trkpt lat="28.7846588" lon="104.6224082"><ele>400.07</ele><time>2025-09-26T03:28:39.000Z</time></trkpt>
        <trkpt lat="28.7846613" lon="104.6225202"><ele>402.25</ele><time>2025-09-26T03:28:53.000Z</time></trkpt>
        <trkpt lat="28.7846571" lon="104.6226366"><ele>404.27</ele><time>2025-09-26T03:29:09.000Z</time></trkpt>
        <trkpt lat="28.7846555" lon="104.6227518"><ele>405.8</ele><time>2025-09-26T03:29:23.000Z</time></trkpt>
        <trkpt lat="28.7846584" lon="104.6228623"><ele>408.27</ele><time>2025-09-26T03:29:39.000Z</time></trkpt>
        <trkpt lat="28.7846564" lon="104.6229692"><ele>410.73</ele><time>2025-09-26T03:29:53.000Z</time></trkpt>
        <trkpt lat="28.784663" lon="104.6230805"><ele>413.53</ele><time>2025-09-26T03:30:09.000Z</time></trkpt>
        <trkpt lat="28.7846716" lon="104.6231905"><ele>415.96</ele><time>2025-09-26T03:30:23.000Z</time></trkpt>
        <trkpt lat="28.7846887" lon="104.6232983"><ele>417.85</ele><time>2025-09-26T03:30:37.000Z</time></trkpt>
        <trkpt lat="28.7846898" lon="104.6234125"><ele>420.12</ele><time>2025-09-26T03:31:09.000Z</time></trkpt>
        <trkpt lat="28.7846526" lon="104.6235118"><ele>422.92</ele><time>2025-09-26T03:31:25.000Z</time></trkpt>
        <trkpt lat="28.7846237" lon="104.6236231"><ele>425.61</ele><time>2025-09-26T03:31:41.000Z</time></trkpt>
        <trkpt lat="28.7846114" lon="104.6237342"><ele>429.09</ele><time>2025-09-26T03:32:15.000Z</time></trkpt>
        <trkpt lat="28.7846059" lon="104.6238434"><ele>432.79</ele><time>2025-09-26T03:32:27.000Z</time></trkpt>
        <trkpt lat="28.7846771" lon="104.6238835"><ele>435.73</ele><time>2025-09-26T03:32:39.000Z</time></trkpt>
        <trkpt lat="28.7847103" lon="104.6239744"><ele>436.76</ele><time>2025-09-26T03:32:51.000Z</time></trkpt>
        <trkpt lat="28.784765" lon="104.6240625"><ele>439.62</ele><time>2025-09-26T03:33:03.000Z</time></trkpt>
        <trkpt lat="28.784802" lon="104.6241013"><ele>440.43</ele><time>2025-09-26T03:33:23.000Z</time></trkpt>
        <trkpt lat="28.7848365" lon="104.6241851"><ele>440.6</ele><time>2025-09-26T03:33:37.000Z</time></trkpt>
        <trkpt lat="28.7847997" lon="104.6242704"><ele>440.61</ele><time>2025-09-26T03:34:03.000Z</time></trkpt>
        <trkpt lat="28.7847979" lon="104.6243808"><ele>442.37</ele><time>2025-09-26T03:34:15.000Z</time></trkpt>
        <trkpt lat="28.7847804" lon="104.6244985"><ele>444.68</ele><time>2025-09-26T03:34:29.000Z</time></trkpt>
        <trkpt lat="28.7847221" lon="104.6245897"><ele>446.35</ele><time>2025-09-26T03:34:39.000Z</time></trkpt>
        <trkpt lat="28.784639" lon="104.6246572"><ele>449.02</ele><time>2025-09-26T03:34:49.000Z</time></trkpt>
        <trkpt lat="28.7845463" lon="104.6246902"><ele>451.01</ele><time>2025-09-26T03:34:59.000Z</time></trkpt>
        <trkpt lat="28.7844528" lon="104.6247482"><ele>452.26</ele><time>2025-09-26T03:35:11.000Z</time></trkpt>
        <trkpt lat="28.7843781" lon="104.6248289"><ele>452.29</ele><time>2025-09-26T03:35:21.000Z</time></trkpt>
        <trkpt lat="28.7843504" lon="104.6249414"><ele>453.03</ele><time>2025-09-26T03:35:31.000Z</time></trkpt>
        <trkpt lat="28.7843692" lon="104.6250638"><ele>452.88</ele><time>2025-09-26T03:35:43.000Z</time></trkpt>
        <trkpt lat="28.7843869" lon="104.6251196"><ele>452.51</ele><time>2025-09-26T03:35:53.000Z</time></trkpt>
        <trkpt lat="28.7843869" lon="104.6251196"><ele>452.51</ele><time>2025-09-26T03:36:50.000Z</time></trkpt>
        <trkpt lat="28.7843998" lon="104.6252092"><ele>452.77</ele><time>2025-09-26T03:36:56.000Z</time></trkpt>
        <trkpt lat="28.7843998" lon="104.6252092"><ele>452.77</ele><time>2025-09-26T03:37:03.000Z</time></trkpt>
        <trkpt lat="28.784413" lon="104.6253128"><ele>453.32</ele><time>2025-09-26T03:37:17.000Z</time></trkpt>
        <trkpt lat="28.784413" lon="104.6253128"><ele>453.32</ele><time>2025-09-26T03:38:14.000Z</time></trkpt>
        <trkpt lat="28.784413" lon="104.6253128"><ele>453.32</ele><time>2025-09-26T03:38:20.000Z</time></trkpt>
        <trkpt lat="28.784413" lon="104.6253128"><ele>453.32</ele><time>2025-09-26T03:38:41.000Z</time></trkpt>
        <trkpt lat="28.784415" lon="104.6253529"><ele>451.84</ele><time>2025-09-26T03:40:12.000Z</time></trkpt>
        <trkpt lat="28.784415" lon="104.6253529"><ele>451.84</ele><time>2025-09-26T03:40:21.000Z</time></trkpt>
        <trkpt lat="28.7843482" lon="104.6254571"><ele>455.87</ele><time>2025-09-26T03:40:29.000Z</time></trkpt>
        <trkpt lat="28.7842865" lon="104.6255652"><ele>457.5</ele><time>2025-09-26T03:40:37.000Z</time></trkpt>
        <trkpt lat="28.7842635" lon="104.6256865"><ele>457.78</ele><time>2025-09-26T03:40:45.000Z</time></trkpt>
        <trkpt lat="28.7842696" lon="104.6258107"><ele>456.87</ele><time>2025-09-26T03:40:53.000Z</time></trkpt>
        <trkpt lat="28.7842965" lon="104.6259248"><ele>456.41</ele><time>2025-09-26T03:41:01.000Z</time></trkpt>
        <trkpt lat="28.7843255" lon="104.6260403"><ele>455.58</ele><time>2025-09-26T03:41:09.000Z</time></trkpt>
        <trkpt lat="28.7843819" lon="104.6261335"><ele>454.37</ele><time>2025-09-26T03:41:17.000Z</time></trkpt>
        <trkpt lat="28.7844596" lon="104.6261982"><ele>453.74</ele><time>2025-09-26T03:41:25.000Z</time></trkpt>
        <trkpt lat="28.7845535" lon="104.6262601"><ele>454.04</ele><time>2025-09-26T03:41:35.000Z</time></trkpt>
        <trkpt lat="28.7846082" lon="104.6263557"><ele>454.83</ele><time>2025-09-26T03:41:45.000Z</time></trkpt>
        <trkpt lat="28.7846551" lon="104.6264537"><ele>455.66</ele><time>2025-09-26T03:41:55.000Z</time></trkpt>
        <trkpt lat="28.7847343" lon="104.6265334"><ele>456.06</ele><time>2025-09-26T03:42:05.000Z</time></trkpt>
        <trkpt lat="28.7848232" lon="104.6265966"><ele>456.31</ele><time>2025-09-26T03:42:15.000Z</time></trkpt>
        <trkpt lat="28.7848838" lon="104.6266888"><ele>457.31</ele><time>2025-09-26T03:42:25.000Z</time></trkpt>
        <trkpt lat="28.7849361" lon="104.6267997"><ele>458.02</ele><time>2025-09-26T03:42:35.000Z</time></trkpt>
        <trkpt lat="28.7849819" lon="104.6268993"><ele>458.64</ele><time>2025-09-26T03:42:43.000Z</time></trkpt>
        <trkpt lat="28.7850097" lon="104.6270121"><ele>459.27</ele><time>2025-09-26T03:42:53.000Z</time></trkpt>
        <trkpt lat="28.7850109" lon="104.6271358"><ele>460.09</ele><time>2025-09-26T03:43:03.000Z</time></trkpt>
        <trkpt lat="28.7850114" lon="104.6272572"><ele>461.08</ele><time>2025-09-26T03:43:13.000Z</time></trkpt>
        <trkpt lat="28.7850394" lon="104.6273737"><ele>462.75</ele><time>2025-09-26T03:43:25.000Z</time></trkpt>
        <trkpt lat="28.7850714" lon="104.6274765"><ele>464.44</ele><time>2025-09-26T03:43:35.000Z</time></trkpt>
        <trkpt lat="28.7851434" lon="104.6275578"><ele>465.61</ele><time>2025-09-26T03:43:45.000Z</time></trkpt>
        <trkpt lat="28.785238" lon="104.6276255"><ele>466.16</ele><time>2025-09-26T03:43:57.000Z</time></trkpt>
        <trkpt lat="28.7853087" lon="104.6277067"><ele>464.26</ele><time>2025-09-26T03:44:09.000Z</time></trkpt>
        <trkpt lat="28.7853633" lon="104.627793"><ele>464.24</ele><time>2025-09-26T03:44:19.000Z</time></trkpt>
        <trkpt lat="28.7854379" lon="104.6278749"><ele>464.97</ele><time>2025-09-26T03:44:29.000Z</time></trkpt>
        <trkpt lat="28.7855188" lon="104.6279411"><ele>466.07</ele><time>2025-09-26T03:44:37.000Z</time></trkpt>
        <trkpt lat="28.7856034" lon="104.6280037"><ele>467.1</ele><time>2025-09-26T03:44:45.000Z</time></trkpt>
        <trkpt lat="28.7856738" lon="104.6280839"><ele>468.26</ele><time>2025-09-26T03:44:53.000Z</time></trkpt>
        <trkpt lat="28.7857362" lon="104.6281716"><ele>469.66</ele><time>2025-09-26T03:45:01.000Z</time></trkpt>
        <trkpt lat="28.7857983" lon="104.6282551"><ele>470.87</ele><time>2025-09-26T03:45:09.000Z</time></trkpt>
        <trkpt lat="28.7858618" lon="104.6283389"><ele>472.03</ele><time>2025-09-26T03:45:19.000Z</time></trkpt>
        <trkpt lat="28.7858719" lon="104.6283685"><ele>473.18</ele><time>2025-09-26T03:45:21.000Z</time></trkpt>
        <trkpt lat="28.7858719" lon="104.6283685"><ele>473.18</ele><time>2025-09-26T03:45:29.000Z</time></trkpt>
        <trkpt lat="28.7858719" lon="104.6283685"><ele>473.18</ele><time>2025-09-26T03:45:35.000Z</time></trkpt>
        <trkpt lat="28.7858719" lon="104.6283685"><ele>473.18</ele><time>2025-09-26T03:45:57.000Z</time></trkpt>
        <trkpt lat="28.7859112" lon="104.6284328"><ele>474.02</ele><time>2025-09-26T03:46:03.000Z</time></trkpt>
        <trkpt lat="28.7859112" lon="104.6284328"><ele>474.02</ele><time>2025-09-26T03:46:21.000Z</time></trkpt>
        <trkpt lat="28.7859112" lon="104.6284328"><ele>474.02</ele><time>2025-09-26T03:46:37.000Z</time></trkpt>
        <trkpt lat="28.7859112" lon="104.6284328"><ele>474.02</ele><time>2025-09-26T03:46:39.000Z</time></trkpt>
        <trkpt lat="28.7859112" lon="104.6284328"><ele>474.02</ele><time>2025-09-26T03:46:57.000Z</time></trkpt>
        <trkpt lat="28.7859848" lon="104.6285044"><ele>474.58</ele><time>2025-09-26T03:47:01.000Z</time></trkpt>
        <trkpt lat="28.7859848" lon="104.6285044"><ele>474.58</ele><time>2025-09-26T03:47:51.000Z</time></trkpt>
        <trkpt lat="28.7860648" lon="104.6285805"><ele>473.91</ele><time>2025-09-26T03:48:01.000Z</time></trkpt>
        <trkpt lat="28.7861572" lon="104.6286437"><ele>473.21</ele><time>2025-09-26T03:48:11.000Z</time></trkpt>
        <trkpt lat="28.7862409" lon="104.6287059"><ele>472.23</ele><time>2025-09-26T03:48:19.000Z</time></trkpt>
        <trkpt lat="28.7863242" lon="104.6287651"><ele>471.24</ele><time>2025-09-26T03:48:27.000Z</time></trkpt>
        <trkpt lat="28.7864067" lon="104.6288141"><ele>471.09</ele><time>2025-09-26T03:48:35.000Z</time></trkpt>
        <trkpt lat="28.7864786" lon="104.6288815"><ele>471.03</ele><time>2025-09-26T03:48:43.000Z</time></trkpt>
        <trkpt lat="28.7865368" lon="104.6289657"><ele>471.02</ele><time>2025-09-26T03:48:51.000Z</time></trkpt>
        <trkpt lat="28.7866006" lon="104.6290523"><ele>471.22</ele><time>2025-09-26T03:48:59.000Z</time></trkpt>
        <trkpt lat="28.7866635" lon="104.6291327"><ele>471.93</ele><time>2025-09-26T03:49:07.000Z</time></trkpt>
        <trkpt lat="28.7866711" lon="104.6291896"><ele>472.8</ele><time>2025-09-26T03:49:15.000Z</time></trkpt>
        <trkpt lat="28.7866711" lon="104.6291896"><ele>472.8</ele><time>2025-09-26T03:49:27.000Z</time></trkpt>
        <trkpt lat="28.7866711" lon="104.6291896"><ele>472.8</ele><time>2025-09-26T03:49:33.000Z</time></trkpt>
        <trkpt lat="28.7866711" lon="104.6291896"><ele>472.8</ele><time>2025-09-26T03:50:09.000Z</time></trkpt>
        <trkpt lat="28.7867272" lon="104.6292418"><ele>473.45</ele><time>2025-09-26T03:50:11.000Z</time></trkpt>
        <trkpt lat="28.7867272" lon="104.6292418"><ele>473.45</ele><time>2025-09-26T03:50:19.000Z</time></trkpt>
        <trkpt lat="28.7868046" lon="104.6293066"><ele>473.93</ele><time>2025-09-26T03:50:27.000Z</time></trkpt>
        <trkpt lat="28.786874" lon="104.6294006"><ele>473.73</ele><time>2025-09-26T03:50:37.000Z</time></trkpt>
        <trkpt lat="28.7869207" lon="104.6295033"><ele>473.75</ele><time>2025-09-26T03:50:45.000Z</time></trkpt>
        <trkpt lat="28.7868691" lon="104.6294742"><ele>473.37</ele><time>2025-09-26T03:50:57.000Z</time></trkpt>
        <trkpt lat="28.7868788" lon="104.6295235"><ele>474.37</ele><time>2025-09-26T03:51:05.000Z</time></trkpt>
        <trkpt lat="28.7869438" lon="104.629589"><ele>473.5</ele><time>2025-09-26T03:51:13.000Z</time></trkpt>
        <trkpt lat="28.7870197" lon="104.629663"><ele>472.23</ele><time>2025-09-26T03:51:21.000Z</time></trkpt>
        <trkpt lat="28.7870928" lon="104.6297544"><ele>471.5</ele><time>2025-09-26T03:51:33.000Z</time></trkpt>
        <trkpt lat="28.7871813" lon="104.6298294"><ele>472.17</ele><time>2025-09-26T03:51:43.000Z</time></trkpt>
        <trkpt lat="28.7872705" lon="104.629886"><ele>472.74</ele><time>2025-09-26T03:51:51.000Z</time></trkpt>
        <trkpt lat="28.7873448" lon="104.629958"><ele>472.62</ele><time>2025-09-26T03:51:59.000Z</time></trkpt>
        <trkpt lat="28.7874077" lon="104.6300551"><ele>472.12</ele><time>2025-09-26T03:52:09.000Z</time></trkpt>
        <trkpt lat="28.7874599" lon="104.6301556"><ele>471.69</ele><time>2025-09-26T03:52:17.000Z</time></trkpt>
        <trkpt lat="28.7875063" lon="104.630259"><ele>471.5</ele><time>2025-09-26T03:52:25.000Z</time></trkpt>
        <trkpt lat="28.7875597" lon="104.6303507"><ele>471.13</ele><time>2025-09-26T03:52:33.000Z</time></trkpt>
        <trkpt lat="28.7876065" lon="104.6304432"><ele>470.79</ele><time>2025-09-26T03:52:41.000Z</time></trkpt>
        <trkpt lat="28.7876475" lon="104.6305434"><ele>470.56</ele><time>2025-09-26T03:52:49.000Z</time></trkpt>
        <trkpt lat="28.7876848" lon="104.6306455"><ele>470.7</ele><time>2025-09-26T03:52:57.000Z</time></trkpt>
        <trkpt lat="28.7877154" lon="104.6307516"><ele>471.01</ele><time>2025-09-26T03:53:05.000Z</time></trkpt>
        <trkpt lat="28.7877154" lon="104.6307516"><ele>471.01</ele><time>2025-09-26T03:53:23.000Z</time></trkpt>
        <trkpt lat="28.7877154" lon="104.6307516"><ele>471.01</ele><time>2025-09-26T03:53:27.000Z</time></trkpt>
        <trkpt lat="28.7877154" lon="104.6307516"><ele>471.01</ele><time>2025-09-26T03:54:23.000Z</time></trkpt>
        <trkpt lat="28.7877787" lon="104.6308583"><ele>471.46</ele><time>2025-09-26T03:54:27.000Z</time></trkpt>
        <trkpt lat="28.7877787" lon="104.6308583"><ele>471.46</ele><time>2025-09-26T03:54:47.000Z</time></trkpt>
        <trkpt lat="28.7878672" lon="104.6309447"><ele>470.82</ele><time>2025-09-26T03:54:55.000Z</time></trkpt>
        <trkpt lat="28.7879522" lon="104.6310233"><ele>469.42</ele><time>2025-09-26T03:55:03.000Z</time></trkpt>
        <trkpt lat="28.7880273" lon="104.6311131"><ele>468.36</ele><time>2025-09-26T03:55:11.000Z</time></trkpt>
        <trkpt lat="28.7880898" lon="104.6312112"><ele>467.44</ele><time>2025-09-26T03:55:19.000Z</time></trkpt>
        <trkpt lat="28.7881524" lon="104.6313173"><ele>466.8</ele><time>2025-09-26T03:55:27.000Z</time></trkpt>
        <trkpt lat="28.7882185" lon="104.6314113"><ele>466.83</ele><time>2025-09-26T03:55:35.000Z</time></trkpt>
        <trkpt lat="28.7883028" lon="104.6314838"><ele>467.29</ele><time>2025-09-26T03:55:45.000Z</time></trkpt>
        <trkpt lat="28.7883897" lon="104.6315647"><ele>468.09</ele><time>2025-09-26T03:55:55.000Z</time></trkpt>
        <trkpt lat="28.7884576" lon="104.6316434"><ele>468.48</ele><time>2025-09-26T03:56:03.000Z</time></trkpt>
        <trkpt lat="28.7885348" lon="104.6317074"><ele>469.48</ele><time>2025-09-26T03:56:11.000Z</time></trkpt>
        <trkpt lat="28.7886193" lon="104.6317586"><ele>470.42</ele><time>2025-09-26T03:56:19.000Z</time></trkpt>
        <trkpt lat="28.7886971" lon="104.6318245"><ele>471.49</ele><time>2025-09-26T03:56:27.000Z</time></trkpt>
        <trkpt lat="28.7887431" lon="104.6319264"><ele>472.44</ele><time>2025-09-26T03:56:35.000Z</time></trkpt>
        <trkpt lat="28.7887312" lon="104.6320145"><ele>473.49</ele><time>2025-09-26T03:56:43.000Z</time></trkpt>
        <trkpt lat="28.788797" lon="104.6320226"><ele>475.11</ele><time>2025-09-26T03:56:51.000Z</time></trkpt>
        <trkpt lat="28.788797" lon="104.6320226"><ele>475.11</ele><time>2025-09-26T03:57:15.000Z</time></trkpt>
        <trkpt lat="28.788797" lon="104.6320226"><ele>475.11</ele><time>2025-09-26T03:57:19.000Z</time></trkpt>
        <trkpt lat="28.788797" lon="104.6320226"><ele>475.11</ele><time>2025-09-26T03:58:01.000Z</time></trkpt>
        <trkpt lat="28.7887177" lon="104.631994"><ele>475.16</ele><time>2025-09-26T03:58:07.000Z</time></trkpt>
        <trkpt lat="28.7887177" lon="104.631994"><ele>475.16</ele><time>2025-09-26T03:58:13.000Z</time></trkpt>
        <trkpt lat="28.7887177" lon="104.631994"><ele>475.16</ele><time>2025-09-26T03:58:45.000Z</time></trkpt>
        <trkpt lat="28.7887177" lon="104.631994"><ele>475.16</ele><time>2025-09-26T03:58:51.000Z</time></trkpt>
        <trkpt lat="28.7887177" lon="104.631994"><ele>475.16</ele><time>2025-09-26T03:59:47.000Z</time></trkpt>
        <trkpt lat="28.7887177" lon="104.631994"><ele>475.16</ele><time>2025-09-26T03:59:53.000Z</time></trkpt>
        <trkpt lat="28.7887177" lon="104.631994"><ele>475.16</ele><time>2025-09-26T04:00:21.000Z</time></trkpt>
        <trkpt lat="28.788728" lon="104.6320992"><ele>476.51</ele><time>2025-09-26T04:00:23.000Z</time></trkpt>
        <trkpt lat="28.788728" lon="104.6320992"><ele>476.51</ele><time>2025-09-26T04:00:45.000Z</time></trkpt>
        <trkpt lat="28.7887798" lon="104.6322002"><ele>477.82</ele><time>2025-09-26T04:00:57.000Z</time></trkpt>
        <trkpt lat="28.7887798" lon="104.6322002"><ele>477.82</ele><time>2025-09-26T04:02:03.000Z</time></trkpt>
        <trkpt lat="28.7888372" lon="104.6322799"><ele>478.59</ele><time>2025-09-26T04:02:09.000Z</time></trkpt>
        <trkpt lat="28.7888372" lon="104.6322799"><ele>478.59</ele><time>2025-09-26T04:02:45.000Z</time></trkpt>
        <trkpt lat="28.7888911" lon="104.6323709"><ele>479.96</ele><time>2025-09-26T04:02:57.000Z</time></trkpt>
        <trkpt lat="28.7889401" lon="104.6324762"><ele>481.1</ele><time>2025-09-26T04:03:07.000Z</time></trkpt>
        <trkpt lat="28.7889588" lon="104.6325844"><ele>481.45</ele><time>2025-09-26T04:03:15.000Z</time></trkpt>
        <trkpt lat="28.7889893" lon="104.6326955"><ele>481.82</ele><time>2025-09-26T04:03:23.000Z</time></trkpt>
        <trkpt lat="28.7890455" lon="104.6327896"><ele>481.84</ele><time>2025-09-26T04:03:31.000Z</time></trkpt>
        <trkpt lat="28.7891117" lon="104.6328712"><ele>482.16</ele><time>2025-09-26T04:03:39.000Z</time></trkpt>
        <trkpt lat="28.789197" lon="104.6329087"><ele>482.06</ele><time>2025-09-26T04:03:47.000Z</time></trkpt>
        <trkpt lat="28.7893042" lon="104.6329176"><ele>481.12</ele><time>2025-09-26T04:03:57.000Z</time></trkpt>
        <trkpt lat="28.7894133" lon="104.6329068"><ele>481.22</ele><time>2025-09-26T04:04:05.000Z</time></trkpt>
        <trkpt lat="28.789513" lon="104.6329447"><ele>479.26</ele><time>2025-09-26T04:04:13.000Z</time></trkpt>
        <trkpt lat="28.7894822" lon="104.6329421"><ele>477.93</ele><time>2025-09-26T04:04:33.000Z</time></trkpt>
        <trkpt lat="28.7894822" lon="104.6329421"><ele>477.93</ele><time>2025-09-26T04:04:55.000Z</time></trkpt>
        <trkpt lat="28.7894822" lon="104.6329421"><ele>477.93</ele><time>2025-09-26T04:05:01.000Z</time></trkpt>
        <trkpt lat="28.7894822" lon="104.6329421"><ele>477.93</ele><time>2025-09-26T04:05:33.000Z</time></trkpt>
        <trkpt lat="28.7894822" lon="104.6329421"><ele>477.93</ele><time>2025-09-26T04:05:37.000Z</time></trkpt>
        <trkpt lat="28.7894822" lon="104.6329421"><ele>477.93</ele><time>2025-09-26T04:06:09.000Z</time></trkpt>
        <trkpt lat="28.7894822" lon="104.6329421"><ele>477.93</ele><time>2025-09-26T04:06:13.000Z</time></trkpt>
        <trkpt lat="28.7894822" lon="104.6329421"><ele>477.93</ele><time>2025-09-26T04:06:49.000Z</time></trkpt>
        <trkpt lat="28.7894822" lon="104.6329421"><ele>477.93</ele><time>2025-09-26T04:06:55.000Z</time></trkpt>
        <trkpt lat="28.7894822" lon="104.6329421"><ele>477.93</ele><time>2025-09-26T04:07:21.000Z</time></trkpt>
        <trkpt lat="28.7894822" lon="104.6329421"><ele>477.93</ele><time>2025-09-26T04:07:23.000Z</time></trkpt>
        <trkpt lat="28.7894822" lon="104.6329421"><ele>477.93</ele><time>2025-09-26T04:07:55.000Z</time></trkpt>
        <trkpt lat="28.7895288" lon="104.6329829"><ele>476.7</ele><time>2025-09-26T04:07:59.000Z</time></trkpt>
        <trkpt lat="28.7895288" lon="104.6329829"><ele>476.7</ele><time>2025-09-26T04:08:11.000Z</time></trkpt>
        <trkpt lat="28.7896155" lon="104.6330483"><ele>476.76</ele><time>2025-09-26T04:08:19.000Z</time></trkpt>
        <trkpt lat="28.7897213" lon="104.6331074"><ele>476.71</ele><time>2025-09-26T04:08:27.000Z</time></trkpt>
        <trkpt lat="28.7898144" lon="104.6331764"><ele>476.91</ele><time>2025-09-26T04:08:35.000Z</time></trkpt>
        <trkpt lat="28.7899165" lon="104.6332243"><ele>477.31</ele><time>2025-09-26T04:08:43.000Z</time></trkpt>
        <trkpt lat="28.7900171" lon="104.6332595"><ele>476.51</ele><time>2025-09-26T04:08:51.000Z</time></trkpt>
        <trkpt lat="28.7901072" lon="104.6333051"><ele>476.06</ele><time>2025-09-26T04:08:59.000Z</time></trkpt>
        <trkpt lat="28.7901699" lon="104.6333867"><ele>475.35</ele><time>2025-09-26T04:09:07.000Z</time></trkpt>
        <trkpt lat="28.7902297" lon="104.6334668"><ele>474.63</ele><time>2025-09-26T04:09:15.000Z</time></trkpt>
        <trkpt lat="28.7903081" lon="104.6335393"><ele>474.38</ele><time>2025-09-26T04:09:23.000Z</time></trkpt>
        <trkpt lat="28.7903972" lon="104.6336079"><ele>474.26</ele><time>2025-09-26T04:09:31.000Z</time></trkpt>
        <trkpt lat="28.7904752" lon="104.6336908"><ele>474.38</ele><time>2025-09-26T04:09:39.000Z</time></trkpt>
        <trkpt lat="28.7905215" lon="104.6337926"><ele>474.09</ele><time>2025-09-26T04:09:45.000Z</time></trkpt>
        <trkpt lat="28.7905859" lon="104.6338852"><ele>473.17</ele><time>2025-09-26T04:09:55.000Z</time></trkpt>
        <trkpt lat="28.7906537" lon="104.63398"><ele>472.79</ele><time>2025-09-26T04:10:05.000Z</time></trkpt>
        <trkpt lat="28.7907283" lon="104.6340652"><ele>472.29</ele><time>2025-09-26T04:10:13.000Z</time></trkpt>
        <trkpt lat="28.7908206" lon="104.6341193"><ele>472.27</ele><time>2025-09-26T04:10:21.000Z</time></trkpt>
        <trkpt lat="28.7909194" lon="104.634162"><ele>472.41</ele><time>2025-09-26T04:10:29.000Z</time></trkpt>
        <trkpt lat="28.7910071" lon="104.6342158"><ele>472.8</ele><time>2025-09-26T04:10:37.000Z</time></trkpt>
        <trkpt lat="28.79108" lon="104.6342855"><ele>473.15</ele><time>2025-09-26T04:10:45.000Z</time></trkpt>
        <trkpt lat="28.7911238" lon="104.6343854"><ele>473.48</ele><time>2025-09-26T04:10:53.000Z</time></trkpt>
        <trkpt lat="28.7911702" lon="104.6344816"><ele>473.42</ele><time>2025-09-26T04:11:01.000Z</time></trkpt>
        <trkpt lat="28.7912419" lon="104.6345666"><ele>473.61</ele><time>2025-09-26T04:11:09.000Z</time></trkpt>
        <trkpt lat="28.7913163" lon="104.634653"><ele>473.47</ele><time>2025-09-26T04:11:17.000Z</time></trkpt>
        <trkpt lat="28.7913974" lon="104.6347457"><ele>473.63</ele><time>2025-09-26T04:11:25.000Z</time></trkpt>
        <trkpt lat="28.7914652" lon="104.634841"><ele>473.88</ele><time>2025-09-26T04:11:33.000Z</time></trkpt>
        <trkpt lat="28.791524" lon="104.6349465"><ele>473.99</ele><time>2025-09-26T04:11:41.000Z</time></trkpt>
        <trkpt lat="28.7915913" lon="104.6350462"><ele>474.21</ele><time>2025-09-26T04:11:49.000Z</time></trkpt>
        <trkpt lat="28.7916583" lon="104.6351513"><ele>474.19</ele><time>2025-09-26T04:11:57.000Z</time></trkpt>
        <trkpt lat="28.7917165" lon="104.6352571"><ele>474.04</ele><time>2025-09-26T04:12:05.000Z</time></trkpt>
        <trkpt lat="28.7917632" lon="104.6353654"><ele>473.57</ele><time>2025-09-26T04:12:13.000Z</time></trkpt>
        <trkpt lat="28.7918272" lon="104.6354563"><ele>473.35</ele><time>2025-09-26T04:12:29.000Z</time></trkpt>
        <trkpt lat="28.7918896" lon="104.6355471"><ele>472.83</ele><time>2025-09-26T04:12:39.000Z</time></trkpt>
        <trkpt lat="28.7919265" lon="104.6356581"><ele>472.9</ele><time>2025-09-26T04:12:49.000Z</time></trkpt>
        <trkpt lat="28.7919928" lon="104.6357525"><ele>472.31</ele><time>2025-09-26T04:12:59.000Z</time></trkpt>
        <trkpt lat="28.7920849" lon="104.6358128"><ele>471.72</ele><time>2025-09-26T04:13:09.000Z</time></trkpt>
        <trkpt lat="28.7921649" lon="104.6358709"><ele>470.81</ele><time>2025-09-26T04:13:17.000Z</time></trkpt>
        <trkpt lat="28.7922446" lon="104.6359311"><ele>470.57</ele><time>2025-09-26T04:13:25.000Z</time></trkpt>
        <trkpt lat="28.792338" lon="104.6359749"><ele>470.81</ele><time>2025-09-26T04:13:33.000Z</time></trkpt>
        <trkpt lat="28.7924262" lon="104.636021"><ele>470.67</ele><time>2025-09-26T04:13:41.000Z</time></trkpt>
        <trkpt lat="28.7925147" lon="104.6360634"><ele>470.52</ele><time>2025-09-26T04:13:49.000Z</time></trkpt>
        <trkpt lat="28.792585" lon="104.6361392"><ele>469.75</ele><time>2025-09-26T04:13:57.000Z</time></trkpt>
        <trkpt lat="28.7926455" lon="104.6362231"><ele>469.2</ele><time>2025-09-26T04:14:05.000Z</time></trkpt>
        <trkpt lat="28.7926978" lon="104.6363113"><ele>468.1</ele><time>2025-09-26T04:14:13.000Z</time></trkpt>
        <trkpt lat="28.7927563" lon="104.6364066"><ele>466.73</ele><time>2025-09-26T04:14:21.000Z</time></trkpt>
        <trkpt lat="28.7928015" lon="104.6365134"><ele>465.28</ele><time>2025-09-26T04:14:29.000Z</time></trkpt>
        <trkpt lat="28.792855" lon="104.6366111"><ele>464.09</ele><time>2025-09-26T04:14:37.000Z</time></trkpt>
        <trkpt lat="28.7929262" lon="104.6367057"><ele>463.12</ele><time>2025-09-26T04:14:45.000Z</time></trkpt>
        <trkpt lat="28.7929692" lon="104.6368125"><ele>462.01</ele><time>2025-09-26T04:14:53.000Z</time></trkpt>
        <trkpt lat="28.7929996" lon="104.6369199"><ele>461.26</ele><time>2025-09-26T04:15:01.000Z</time></trkpt>
        <trkpt lat="28.7930497" lon="104.6370137"><ele>460.54</ele><time>2025-09-26T04:15:09.000Z</time></trkpt>
        <trkpt lat="28.793113" lon="104.6370975"><ele>460.15</ele><time>2025-09-26T04:15:17.000Z</time></trkpt>
        <trkpt lat="28.7931617" lon="104.6371895"><ele>460.06</ele><time>2025-09-26T04:15:25.000Z</time></trkpt>
        <trkpt lat="28.7931897" lon="104.6372922"><ele>460.25</ele><time>2025-09-26T04:15:33.000Z</time></trkpt>
        <trkpt lat="28.7932093" lon="104.6374017"><ele>460.28</ele><time>2025-09-26T04:15:41.000Z</time></trkpt>
        <trkpt lat="28.7932468" lon="104.6375014"><ele>459.69</ele><time>2025-09-26T04:15:49.000Z</time></trkpt>
        <trkpt lat="28.793308" lon="104.6376017"><ele>459.16</ele><time>2025-09-26T04:15:59.000Z</time></trkpt>
        <trkpt lat="28.7933733" lon="104.6377024"><ele>458.31</ele><time>2025-09-26T04:16:09.000Z</time></trkpt>
        <trkpt lat="28.7934463" lon="104.637791"><ele>457.61</ele><time>2025-09-26T04:16:19.000Z</time></trkpt>
        <trkpt lat="28.7935134" lon="104.637875"><ele>456.87</ele><time>2025-09-26T04:16:27.000Z</time></trkpt>
        <trkpt lat="28.7935801" lon="104.6379557"><ele>456.5</ele><time>2025-09-26T04:16:35.000Z</time></trkpt>
        <trkpt lat="28.7936474" lon="104.6380417"><ele>456.27</ele><time>2025-09-26T04:16:43.000Z</time></trkpt>
        <trkpt lat="28.7936966" lon="104.6381319"><ele>456.82</ele><time>2025-09-26T04:16:51.000Z</time></trkpt>
        <trkpt lat="28.7937523" lon="104.6382165"><ele>457.43</ele><time>2025-09-26T04:16:59.000Z</time></trkpt>
        <trkpt lat="28.7938154" lon="104.6383004"><ele>457.26</ele><time>2025-09-26T04:17:07.000Z</time></trkpt>
        <trkpt lat="28.7939002" lon="104.6383486"><ele>457.9</ele><time>2025-09-26T04:17:15.000Z</time></trkpt>
        <trkpt lat="28.7939988" lon="104.6383417"><ele>458.61</ele><time>2025-09-26T04:17:23.000Z</time></trkpt>
        <trkpt lat="28.7940993" lon="104.6383122"><ele>458.45</ele><time>2025-09-26T04:17:31.000Z</time></trkpt>
        <trkpt lat="28.7941975" lon="104.6383308"><ele>458.9</ele><time>2025-09-26T04:17:39.000Z</time></trkpt>
        <trkpt lat="28.7942842" lon="104.6383887"><ele>459.81</ele><time>2025-09-26T04:17:47.000Z</time></trkpt>
        <trkpt lat="28.7943611" lon="104.6384646"><ele>460.35</ele><time>2025-09-26T04:17:55.000Z</time></trkpt>
        <trkpt lat="28.7944171" lon="104.6385556"><ele>460.12</ele><time>2025-09-26T04:18:03.000Z</time></trkpt>
        <trkpt lat="28.7944871" lon="104.6386493"><ele>459.58</ele><time>2025-09-26T04:18:11.000Z</time></trkpt>
        <trkpt lat="28.7945472" lon="104.6387501"><ele>459.18</ele><time>2025-09-26T04:18:19.000Z</time></trkpt>
        <trkpt lat="28.7945834" lon="104.6388564"><ele>458.49</ele><time>2025-09-26T04:18:27.000Z</time></trkpt>
        <trkpt lat="28.7946137" lon="104.638968"><ele>457.79</ele><time>2025-09-26T04:18:35.000Z</time></trkpt>
        <trkpt lat="28.7946426" lon="104.639087"><ele>457.04</ele><time>2025-09-26T04:18:43.000Z</time></trkpt>
        <trkpt lat="28.7946838" lon="104.6392066"><ele>456.05</ele><time>2025-09-26T04:18:51.000Z</time></trkpt>
        <trkpt lat="28.7947314" lon="104.6393253"><ele>454.35</ele><time>2025-09-26T04:18:59.000Z</time></trkpt>
        <trkpt lat="28.7947526" lon="104.639453"><ele>452.97</ele><time>2025-09-26T04:19:07.000Z</time></trkpt>
        <trkpt lat="28.7947593" lon="104.6395822"><ele>451.74</ele><time>2025-09-26T04:19:15.000Z</time></trkpt>
        <trkpt lat="28.7947827" lon="104.6397026"><ele>451.03</ele><time>2025-09-26T04:19:23.000Z</time></trkpt>
        <trkpt lat="28.7948073" lon="104.6397803"><ele>450.95</ele><time>2025-09-26T04:19:35.000Z</time></trkpt>
        <trkpt lat="28.7948767" lon="104.6397616"><ele>450.51</ele><time>2025-09-26T04:20:11.000Z</time></trkpt>
        <trkpt lat="28.79483" lon="104.6397299"><ele>448.35</ele><time>2025-09-26T04:20:31.000Z</time></trkpt>
        <trkpt lat="28.7948449" lon="104.6397796"><ele>447.5</ele><time>2025-09-26T04:20:39.000Z</time></trkpt>
        <trkpt lat="28.7948968" lon="104.6398445"><ele>447.05</ele><time>2025-09-26T04:20:49.000Z</time></trkpt>
        <trkpt lat="28.7948968" lon="104.6398445"><ele>447.05</ele><time>2025-09-26T04:20:59.000Z</time></trkpt>
        <trkpt lat="28.7950059" lon="104.6398754"><ele>447.21</ele><time>2025-09-26T04:21:05.000Z</time></trkpt>
        <trkpt lat="28.7950059" lon="104.6398754"><ele>447.21</ele><time>2025-09-26T04:24:29.000Z</time></trkpt>
        <trkpt lat="28.7950909" lon="104.6399448"><ele>448.37</ele><time>2025-09-26T04:24:39.000Z</time></trkpt>
        <trkpt lat="28.7951585" lon="104.6400277"><ele>449.02</ele><time>2025-09-26T04:24:47.000Z</time></trkpt>
        <trkpt lat="28.7951872" lon="104.6401247"><ele>449.17</ele><time>2025-09-26T04:24:53.000Z</time></trkpt>
        <trkpt lat="28.7952429" lon="104.6402263"><ele>448.17</ele><time>2025-09-26T04:25:01.000Z</time></trkpt>
        <trkpt lat="28.795288" lon="104.640344"><ele>447.24</ele><time>2025-09-26T04:25:09.000Z</time></trkpt>
        <trkpt lat="28.7953278" lon="104.6404458"><ele>447.25</ele><time>2025-09-26T04:25:17.000Z</time></trkpt>
        <trkpt lat="28.7953858" lon="104.6405473"><ele>448.6</ele><time>2025-09-26T04:25:27.000Z</time></trkpt>
        <trkpt lat="28.7954071" lon="104.6406494"><ele>449.25</ele><time>2025-09-26T04:25:37.000Z</time></trkpt>
        <trkpt lat="28.7954438" lon="104.6407468"><ele>449.93</ele><time>2025-09-26T04:25:51.000Z</time></trkpt>
        <trkpt lat="28.795501" lon="104.6408435"><ele>450.56</ele><time>2025-09-26T04:26:01.000Z</time></trkpt>
        <trkpt lat="28.7955433" lon="104.6409549"><ele>451.1</ele><time>2025-09-26T04:26:11.000Z</time></trkpt>
        <trkpt lat="28.7955837" lon="104.6410641"><ele>451.76</ele><time>2025-09-26T04:26:19.000Z</time></trkpt>
        <trkpt lat="28.7956474" lon="104.6411553"><ele>452.13</ele><time>2025-09-26T04:26:27.000Z</time></trkpt>
        <trkpt lat="28.7957199" lon="104.6412292"><ele>452.18</ele><time>2025-09-26T04:26:35.000Z</time></trkpt>
        <trkpt lat="28.7957783" lon="104.6413218"><ele>452.38</ele><time>2025-09-26T04:26:43.000Z</time></trkpt>
        <trkpt lat="28.7958223" lon="104.6414257"><ele>452.49</ele><time>2025-09-26T04:26:51.000Z</time></trkpt>
        <trkpt lat="28.7958536" lon="104.641546"><ele>453.27</ele><time>2025-09-26T04:26:59.000Z</time></trkpt>
        <trkpt lat="28.7958871" lon="104.6416512"><ele>454.07</ele><time>2025-09-26T04:27:07.000Z</time></trkpt>
        <trkpt lat="28.7958752" lon="104.6417568"><ele>454.4</ele><time>2025-09-26T04:27:15.000Z</time></trkpt>
        <trkpt lat="28.7958804" lon="104.6418626"><ele>453.57</ele><time>2025-09-26T04:27:31.000Z</time></trkpt>
        <trkpt lat="28.7959484" lon="104.6419231"><ele>453.11</ele><time>2025-09-26T04:27:39.000Z</time></trkpt>
        <trkpt lat="28.7960512" lon="104.6419788"><ele>452.52</ele><time>2025-09-26T04:27:49.000Z</time></trkpt>
        <trkpt lat="28.796135" lon="104.6420603"><ele>452.29</ele><time>2025-09-26T04:27:57.000Z</time></trkpt>
        <trkpt lat="28.7961632" lon="104.6421772"><ele>452.25</ele><time>2025-09-26T04:28:07.000Z</time></trkpt>
        <trkpt lat="28.7961897" lon="104.6422966"><ele>452.64</ele><time>2025-09-26T04:28:15.000Z</time></trkpt>
        <trkpt lat="28.7962544" lon="104.6423845"><ele>451.6</ele><time>2025-09-26T04:28:23.000Z</time></trkpt>
        <trkpt lat="28.7963295" lon="104.6424505"><ele>451.37</ele><time>2025-09-26T04:28:31.000Z</time></trkpt>
        <trkpt lat="28.796411" lon="104.6425383"><ele>450.68</ele><time>2025-09-26T04:28:39.000Z</time></trkpt>
        <trkpt lat="28.7964949" lon="104.6426265"><ele>450.24</ele><time>2025-09-26T04:28:47.000Z</time></trkpt>
        <trkpt lat="28.796588" lon="104.6426785"><ele>449.53</ele><time>2025-09-26T04:28:55.000Z</time></trkpt>
        <trkpt lat="28.7966462" lon="104.6426852"><ele>449.43</ele><time>2025-09-26T04:29:03.000Z</time></trkpt>
        <trkpt lat="28.7967125" lon="104.6427274"><ele>449.44</ele><time>2025-09-26T04:29:35.000Z</time></trkpt>
        <trkpt lat="28.7966668" lon="104.6427756"><ele>447.54</ele><time>2025-09-26T04:29:43.000Z</time></trkpt>
        <trkpt lat="28.7965596" lon="104.6427821"><ele>446.1</ele><time>2025-09-26T04:29:53.000Z</time></trkpt>
        <trkpt lat="28.7964399" lon="104.6427574"><ele>445.95</ele><time>2025-09-26T04:30:01.000Z</time></trkpt>
        <trkpt lat="28.7963392" lon="104.6426993"><ele>444.98</ele><time>2025-09-26T04:30:11.000Z</time></trkpt>
        <trkpt lat="28.7963076" lon="104.6426981"><ele>444.24</ele><time>2025-09-26T04:30:15.000Z</time></trkpt>
        <trkpt lat="28.7962726" lon="104.6426291"><ele>443.12</ele><time>2025-09-26T04:30:29.000Z</time></trkpt>
        <trkpt lat="28.7961906" lon="104.642589"><ele>445.4</ele><time>2025-09-26T04:30:35.000Z</time></trkpt>
        <trkpt lat="28.7961067" lon="104.6425298"><ele>445.21</ele><time>2025-09-26T04:30:41.000Z</time></trkpt>
        <trkpt lat="28.796018" lon="104.6424726"><ele>443.83</ele><time>2025-09-26T04:30:47.000Z</time></trkpt>
        <trkpt lat="28.7959269" lon="104.6424013"><ele>442.54</ele><time>2025-09-26T04:30:55.000Z</time></trkpt>
        <trkpt lat="28.7958728" lon="104.642301"><ele>441.21</ele><time>2025-09-26T04:31:03.000Z</time></trkpt>
        <trkpt lat="28.7958548" lon="104.6421858"><ele>439.9</ele><time>2025-09-26T04:31:11.000Z</time></trkpt>
        <trkpt lat="28.795796" lon="104.6421035"><ele>438.38</ele><time>2025-09-26T04:31:19.000Z</time></trkpt>
        <trkpt lat="28.7957026" lon="104.6420911"><ele>437</ele><time>2025-09-26T04:31:27.000Z</time></trkpt>
        <trkpt lat="28.7955979" lon="104.6421143"><ele>435.8</ele><time>2025-09-26T04:31:35.000Z</time></trkpt>
        <trkpt lat="28.7954925" lon="104.6421389"><ele>434.38</ele><time>2025-09-26T04:31:43.000Z</time></trkpt>
        <trkpt lat="28.7953834" lon="104.6421268"><ele>432.76</ele><time>2025-09-26T04:31:51.000Z</time></trkpt>
        <trkpt lat="28.795281" lon="104.6420698"><ele>431.66</ele><time>2025-09-26T04:31:59.000Z</time></trkpt>
        <trkpt lat="28.7951882" lon="104.6420059"><ele>431.03</ele><time>2025-09-26T04:32:07.000Z</time></trkpt>
        <trkpt lat="28.7951098" lon="104.6419243"><ele>429.84</ele><time>2025-09-26T04:32:15.000Z</time></trkpt>
        <trkpt lat="28.7950881" lon="104.6418034"><ele>427.22</ele><time>2025-09-26T04:32:23.000Z</time></trkpt>
        <trkpt lat="28.7951383" lon="104.6416794"><ele>424</ele><time>2025-09-26T04:32:31.000Z</time></trkpt>
        <trkpt lat="28.7951682" lon="104.6415519"><ele>421.65</ele><time>2025-09-26T04:32:39.000Z</time></trkpt>
        <trkpt lat="28.7951069" lon="104.6414658"><ele>419.38</ele><time>2025-09-26T04:32:49.000Z</time></trkpt>
        <trkpt lat="28.7950104" lon="104.641414"><ele>417.13</ele><time>2025-09-26T04:32:57.000Z</time></trkpt>
        <trkpt lat="28.7949209" lon="104.6413454"><ele>415.48</ele><time>2025-09-26T04:33:05.000Z</time></trkpt>
        <trkpt lat="28.7948815" lon="104.6412388"><ele>414.17</ele><time>2025-09-26T04:33:13.000Z</time></trkpt>
        <trkpt lat="28.7949019" lon="104.641121"><ele>413.12</ele><time>2025-09-26T04:33:21.000Z</time></trkpt>
        <trkpt lat="28.7949578" lon="104.6410087"><ele>412</ele><time>2025-09-26T04:33:29.000Z</time></trkpt>
        <trkpt lat="28.794977" lon="104.640885"><ele>411.44</ele><time>2025-09-26T04:33:39.000Z</time></trkpt>
        <trkpt lat="28.7949653" lon="104.6407598"><ele>410.82</ele><time>2025-09-26T04:33:47.000Z</time></trkpt>
        <trkpt lat="28.7949468" lon="104.6406388"><ele>410.41</ele><time>2025-09-26T04:33:55.000Z</time></trkpt>
        <trkpt lat="28.7949017" lon="104.6405314"><ele>411.53</ele><time>2025-09-26T04:34:03.000Z</time></trkpt>
        <trkpt lat="28.7948846" lon="104.6404121"><ele>413.15</ele><time>2025-09-26T04:34:13.000Z</time></trkpt>
        <trkpt lat="28.7948666" lon="104.640289"><ele>414.68</ele><time>2025-09-26T04:34:23.000Z</time></trkpt>
        <trkpt lat="28.7948097" lon="104.6401992"><ele>416.27</ele><time>2025-09-26T04:34:31.000Z</time></trkpt>
        <trkpt lat="28.7947363" lon="104.6401215"><ele>416.99</ele><time>2025-09-26T04:34:39.000Z</time></trkpt>
        <trkpt lat="28.7946614" lon="104.6400367"><ele>417.24</ele><time>2025-09-26T04:34:47.000Z</time></trkpt>
        <trkpt lat="28.7945965" lon="104.6399464"><ele>418.06</ele><time>2025-09-26T04:34:55.000Z</time></trkpt>
        <trkpt lat="28.7945578" lon="104.6398429"><ele>419.12</ele><time>2025-09-26T04:35:03.000Z</time></trkpt>
        <trkpt lat="28.7944882" lon="104.6397597"><ele>420.15</ele><time>2025-09-26T04:35:13.000Z</time></trkpt>
        <trkpt lat="28.7943892" lon="104.6397204"><ele>421.5</ele><time>2025-09-26T04:35:21.000Z</time></trkpt>
        <trkpt lat="28.794285" lon="104.6397385"><ele>421.68</ele><time>2025-09-26T04:35:29.000Z</time></trkpt>
        <trkpt lat="28.7942032" lon="104.6398136"><ele>422.54</ele><time>2025-09-26T04:35:37.000Z</time></trkpt>
        <trkpt lat="28.7941449" lon="104.6399074"><ele>423.17</ele><time>2025-09-26T04:35:43.000Z</time></trkpt>
        <trkpt lat="28.7940773" lon="104.6400051"><ele>423.99</ele><time>2025-09-26T04:35:51.000Z</time></trkpt>
        <trkpt lat="28.7939887" lon="104.6400317"><ele>424.57</ele><time>2025-09-26T04:35:59.000Z</time></trkpt>
        <trkpt lat="28.7938946" lon="104.639991"><ele>424.73</ele><time>2025-09-26T04:36:07.000Z</time></trkpt>
        <trkpt lat="28.7938072" lon="104.639915"><ele>423.46</ele><time>2025-09-26T04:36:15.000Z</time></trkpt>
        <trkpt lat="28.7937365" lon="104.6398149"><ele>422.19</ele><time>2025-09-26T04:36:23.000Z</time></trkpt>
        <trkpt lat="28.7936807" lon="104.6397181"><ele>420.75</ele><time>2025-09-26T04:36:33.000Z</time></trkpt>
        <trkpt lat="28.7936793" lon="104.639719"><ele>419.85</ele><time>2025-09-26T04:36:47.000Z</time></trkpt>
        <trkpt lat="28.7936793" lon="104.639719"><ele>419.85</ele><time>2025-09-26T04:37:07.000Z</time></trkpt>
        <trkpt lat="28.7936517" lon="104.6396564"><ele>419.92</ele><time>2025-09-26T04:37:09.000Z</time></trkpt>
        <trkpt lat="28.7936517" lon="104.6396564"><ele>419.92</ele><time>2025-09-26T04:37:17.000Z</time></trkpt>
        <trkpt lat="28.7936259" lon="104.6395503"><ele>419.43</ele><time>2025-09-26T04:37:27.000Z</time></trkpt>
        <trkpt lat="28.7935542" lon="104.639465"><ele>417.92</ele><time>2025-09-26T04:37:35.000Z</time></trkpt>
        <trkpt lat="28.7934902" lon="104.6393676"><ele>417.3</ele><time>2025-09-26T04:37:43.000Z</time></trkpt>
        <trkpt lat="28.793414" lon="104.6392673"><ele>416.29</ele><time>2025-09-26T04:37:51.000Z</time></trkpt>
        <trkpt lat="28.79334" lon="104.6391654"><ele>415.79</ele><time>2025-09-26T04:37:59.000Z</time></trkpt>
        <trkpt lat="28.7932521" lon="104.6390897"><ele>414.8</ele><time>2025-09-26T04:38:07.000Z</time></trkpt>
        <trkpt lat="28.7931853" lon="104.6390084"><ele>414.06</ele><time>2025-09-26T04:38:15.000Z</time></trkpt>
        <trkpt lat="28.7931227" lon="104.6389175"><ele>413.19</ele><time>2025-09-26T04:38:25.000Z</time></trkpt>
        <trkpt lat="28.7930751" lon="104.638805"><ele>412.3</ele><time>2025-09-26T04:38:35.000Z</time></trkpt>
        <trkpt lat="28.7930217" lon="104.6387125"><ele>411.8</ele><time>2025-09-26T04:38:43.000Z</time></trkpt>
        <trkpt lat="28.7929488" lon="104.6386363"><ele>411.14</ele><time>2025-09-26T04:38:51.000Z</time></trkpt>
        <trkpt lat="28.7928564" lon="104.6385837"><ele>410.16</ele><time>2025-09-26T04:38:59.000Z</time></trkpt>
        <trkpt lat="28.7927522" lon="104.6385499"><ele>408.67</ele><time>2025-09-26T04:39:07.000Z</time></trkpt>
        <trkpt lat="28.7926472" lon="104.6385447"><ele>407.73</ele><time>2025-09-26T04:39:15.000Z</time></trkpt>
        <trkpt lat="28.7925443" lon="104.6385761"><ele>406.47</ele><time>2025-09-26T04:39:23.000Z</time></trkpt>
        <trkpt lat="28.7924372" lon="104.6386119"><ele>405.31</ele><time>2025-09-26T04:39:31.000Z</time></trkpt>
        <trkpt lat="28.7923308" lon="104.6386487"><ele>403.42</ele><time>2025-09-26T04:39:39.000Z</time></trkpt>
        <trkpt lat="28.792227" lon="104.6386506"><ele>401.24</ele><time>2025-09-26T04:39:47.000Z</time></trkpt>
        <trkpt lat="28.7921559" lon="104.6386038"><ele>399.99</ele><time>2025-09-26T04:39:57.000Z</time></trkpt>
        <trkpt lat="28.7921559" lon="104.6386038"><ele>399.99</ele><time>2025-09-26T04:40:07.000Z</time></trkpt>
        <trkpt lat="28.7920912" lon="104.6385257"><ele>398.91</ele><time>2025-09-26T04:40:13.000Z</time></trkpt>
        <trkpt lat="28.7920912" lon="104.6385257"><ele>398.91</ele><time>2025-09-26T04:40:35.000Z</time></trkpt>
        <trkpt lat="28.7920065" lon="104.6384798"><ele>397.92</ele><time>2025-09-26T04:40:45.000Z</time></trkpt>
        <trkpt lat="28.7919459" lon="104.6385369"><ele>396.6</ele><time>2025-09-26T04:40:53.000Z</time></trkpt>
        <trkpt lat="28.7918868" lon="104.6386455"><ele>393.75</ele><time>2025-09-26T04:41:01.000Z</time></trkpt>
        <trkpt lat="28.7918449" lon="104.6387625"><ele>391.09</ele><time>2025-09-26T04:41:09.000Z</time></trkpt>
        <trkpt lat="28.7918354" lon="104.638881"><ele>388.63</ele><time>2025-09-26T04:41:17.000Z</time></trkpt>
        <trkpt lat="28.7918406" lon="104.6389971"><ele>386.48</ele><time>2025-09-26T04:41:27.000Z</time></trkpt>
        <trkpt lat="28.7918562" lon="104.6391044"><ele>384.87</ele><time>2025-09-26T04:41:39.000Z</time></trkpt>
        <trkpt lat="28.7918596" lon="104.6392087"><ele>382.76</ele><time>2025-09-26T04:41:47.000Z</time></trkpt>
        <trkpt lat="28.7918696" lon="104.6393235"><ele>380.5</ele><time>2025-09-26T04:41:55.000Z</time></trkpt>
        <trkpt lat="28.7919144" lon="104.6394389"><ele>377.54</ele><time>2025-09-26T04:42:05.000Z</time></trkpt>
        <trkpt lat="28.7919784" lon="104.6395286"><ele>375.03</ele><time>2025-09-26T04:42:13.000Z</time></trkpt>
        <trkpt lat="28.7920452" lon="104.6396246"><ele>372.34</ele><time>2025-09-26T04:42:21.000Z</time></trkpt>
        <trkpt lat="28.7920992" lon="104.639728"><ele>369.75</ele><time>2025-09-26T04:42:29.000Z</time></trkpt>
        <trkpt lat="28.792035" lon="104.6397909"><ele>367.42</ele><time>2025-09-26T04:42:41.000Z</time></trkpt>
        <trkpt lat="28.7919314" lon="104.6398051"><ele>365.11</ele><time>2025-09-26T04:42:49.000Z</time></trkpt>
        <trkpt lat="28.7918816" lon="104.6398006"><ele>363.66</ele><time>2025-09-26T04:42:53.000Z</time></trkpt>
        <trkpt lat="28.7917985" lon="104.6397804"><ele>363.69</ele><time>2025-09-26T04:43:03.000Z</time></trkpt>
        <trkpt lat="28.7916945" lon="104.6397611"><ele>362.83</ele><time>2025-09-26T04:43:11.000Z</time></trkpt>
        <trkpt lat="28.7915873" lon="104.6397473"><ele>361.54</ele><time>2025-09-26T04:43:19.000Z</time></trkpt>
        <trkpt lat="28.7914837" lon="104.6397338"><ele>360.43</ele><time>2025-09-26T04:43:27.000Z</time></trkpt>
        <trkpt lat="28.7913796" lon="104.6397041"><ele>358.65</ele><time>2025-09-26T04:43:35.000Z</time></trkpt>
        <trkpt lat="28.7912863" lon="104.6396571"><ele>356.27</ele><time>2025-09-26T04:43:43.000Z</time></trkpt>
        <trkpt lat="28.7912028" lon="104.6395896"><ele>353.79</ele><time>2025-09-26T04:43:51.000Z</time></trkpt>
        <trkpt lat="28.7911195" lon="104.639505"><ele>351.12</ele><time>2025-09-26T04:44:01.000Z</time></trkpt>
        <trkpt lat="28.7910379" lon="104.6394326"><ele>348.3</ele><time>2025-09-26T04:44:17.000Z</time></trkpt>
        <trkpt lat="28.7909514" lon="104.6393575"><ele>344.22</ele><time>2025-09-26T04:44:29.000Z</time></trkpt>
        <trkpt lat="28.7908598" lon="104.6392917"><ele>340.79</ele><time>2025-09-26T04:44:37.000Z</time></trkpt>
        <trkpt lat="28.7907683" lon="104.6392249"><ele>337.76</ele><time>2025-09-26T04:44:45.000Z</time></trkpt>
        <trkpt lat="28.7906833" lon="104.63917"><ele>334.78</ele><time>2025-09-26T04:44:51.000Z</time></trkpt>
        <trkpt lat="28.7905883" lon="104.6391392"><ele>332.08</ele><time>2025-09-26T04:44:57.000Z</time></trkpt>
        <trkpt lat="28.790497" lon="104.6391506"><ele>329.74</ele><time>2025-09-26T04:45:03.000Z</time></trkpt>
        <trkpt lat="28.7904065" lon="104.6392219"><ele>327.42</ele><time>2025-09-26T04:45:11.000Z</time></trkpt>
        <trkpt lat="28.7903249" lon="104.6392906"><ele>324.36</ele><time>2025-09-26T04:45:17.000Z</time></trkpt>
        <trkpt lat="28.7902188" lon="104.6392952"><ele>321.59</ele><time>2025-09-26T04:45:25.000Z</time></trkpt>
        <trkpt lat="28.7901122" lon="104.6392592"><ele>318.85</ele><time>2025-09-26T04:45:33.000Z</time></trkpt>
        <trkpt lat="28.7900092" lon="104.6392386"><ele>316.41</ele><time>2025-09-26T04:45:41.000Z</time></trkpt>
        <trkpt lat="28.7899095" lon="104.6392263"><ele>314.29</ele><time>2025-09-26T04:45:49.000Z</time></trkpt>
        <trkpt lat="28.789808" lon="104.6391956"><ele>313.38</ele><time>2025-09-26T04:45:57.000Z</time></trkpt>
        <trkpt lat="28.7897094" lon="104.6391518"><ele>312.03</ele><time>2025-09-26T04:46:05.000Z</time></trkpt>
        <trkpt lat="28.7896208" lon="104.639112"><ele>310.25</ele><time>2025-09-26T04:46:13.000Z</time></trkpt>
        <trkpt lat="28.7895353" lon="104.6390779"><ele>308.97</ele><time>2025-09-26T04:46:23.000Z</time></trkpt>
        <trkpt lat="28.7894796" lon="104.6391503"><ele>309.53</ele><time>2025-09-26T04:46:37.000Z</time></trkpt>
        <trkpt lat="28.7894144" lon="104.6392279"><ele>306.66</ele><time>2025-09-26T04:46:47.000Z</time></trkpt>
        <trkpt lat="28.7893201" lon="104.6392618"><ele>303.73</ele><time>2025-09-26T04:46:57.000Z</time></trkpt>
        <trkpt lat="28.7892169" lon="104.6392689"><ele>301.14</ele><time>2025-09-26T04:47:07.000Z</time></trkpt>
        <trkpt lat="28.7891045" lon="104.6392686"><ele>298.62</ele><time>2025-09-26T04:47:17.000Z</time></trkpt>
        <trkpt lat="28.7890062" lon="104.6392883"><ele>295.92</ele><time>2025-09-26T04:47:25.000Z</time></trkpt>
        <trkpt lat="28.788916" lon="104.6393203"><ele>293.78</ele><time>2025-09-26T04:47:33.000Z</time></trkpt>
        <trkpt lat="28.7888248" lon="104.6393501"><ele>291.75</ele><time>2025-09-26T04:47:41.000Z</time></trkpt>
        <trkpt lat="28.7887282" lon="104.6393614"><ele>290.02</ele><time>2025-09-26T04:47:49.000Z</time></trkpt>
        <trkpt lat="28.7886351" lon="104.6393803"><ele>288.3</ele><time>2025-09-26T04:47:57.000Z</time></trkpt>
        <trkpt lat="28.7885322" lon="104.6393644"><ele>286.64</ele><time>2025-09-26T04:48:07.000Z</time></trkpt>
        <trkpt lat="28.7884637" lon="104.639439"><ele>284.6</ele><time>2025-09-26T04:48:17.000Z</time></trkpt>
        <trkpt lat="28.7884425" lon="104.6395439"><ele>282.09</ele><time>2025-09-26T04:48:25.000Z</time></trkpt>
        <trkpt lat="28.7884331" lon="104.6396541"><ele>279.93</ele><time>2025-09-26T04:48:33.000Z</time></trkpt>
        <trkpt lat="28.7884089" lon="104.6397683"><ele>278.05</ele><time>2025-09-26T04:48:41.000Z</time></trkpt>
        <trkpt lat="28.7883782" lon="104.6398788"><ele>276.2</ele><time>2025-09-26T04:48:49.000Z</time></trkpt>
        <trkpt lat="28.7883312" lon="104.63999"><ele>274.61</ele><time>2025-09-26T04:48:57.000Z</time></trkpt>
        <trkpt lat="28.7882813" lon="104.6400926"><ele>272.96</ele><time>2025-09-26T04:49:05.000Z</time></trkpt>
        <trkpt lat="28.7882235" lon="104.6401886"><ele>271.63</ele><time>2025-09-26T04:49:13.000Z</time></trkpt>
        <trkpt lat="28.7881745" lon="104.6402873"><ele>270.7</ele><time>2025-09-26T04:49:21.000Z</time></trkpt>
        <trkpt lat="28.7881276" lon="104.6403841"><ele>270.06</ele><time>2025-09-26T04:49:29.000Z</time></trkpt>
        <trkpt lat="28.7880588" lon="104.6404532"><ele>269.87</ele><time>2025-09-26T04:49:37.000Z</time></trkpt>
        <trkpt lat="28.7879722" lon="104.6404506"><ele>270.38</ele><time>2025-09-26T04:49:45.000Z</time></trkpt>
        <trkpt lat="28.7878819" lon="104.6404115"><ele>270.55</ele><time>2025-09-26T04:49:53.000Z</time></trkpt>
        <trkpt lat="28.7877903" lon="104.6403679"><ele>270.6</ele><time>2025-09-26T04:50:05.000Z</time></trkpt>
        <trkpt lat="28.7876991" lon="104.6403246"><ele>271.26</ele><time>2025-09-26T04:50:49.000Z</time></trkpt>
        <trkpt lat="28.7876132" lon="104.6402472"><ele>271.31</ele><time>2025-09-26T04:51:01.000Z</time></trkpt>
        <trkpt lat="28.7875174" lon="104.640175"><ele>269.7</ele><time>2025-09-26T04:51:11.000Z</time></trkpt>
        <trkpt lat="28.7874304" lon="104.6400948"><ele>268.67</ele><time>2025-09-26T04:51:21.000Z</time></trkpt>
        <trkpt lat="28.7873635" lon="104.640008"><ele>267.75</ele><time>2025-09-26T04:51:29.000Z</time></trkpt>
        <trkpt lat="28.7872982" lon="104.6399248"><ele>267.15</ele><time>2025-09-26T04:51:37.000Z</time></trkpt>
        <trkpt lat="28.7872325" lon="104.6398497"><ele>267.17</ele><time>2025-09-26T04:51:45.000Z</time></trkpt>
        <trkpt lat="28.7871648" lon="104.6397819"><ele>266.7</ele><time>2025-09-26T04:51:53.000Z</time></trkpt>
        <trkpt lat="28.7870938" lon="104.6397147"><ele>265.79</ele><time>2025-09-26T04:52:01.000Z</time></trkpt>
        <trkpt lat="28.7870222" lon="104.6396455"><ele>265.53</ele><time>2025-09-26T04:52:09.000Z</time></trkpt>
        <trkpt lat="28.7869439" lon="104.6395698"><ele>265.7</ele><time>2025-09-26T04:52:17.000Z</time></trkpt>
        <trkpt lat="28.7868743" lon="104.6394836"><ele>265.2</ele><time>2025-09-26T04:52:25.000Z</time></trkpt>
        <trkpt lat="28.7868333" lon="104.6394437"><ele>265.35</ele><time>2025-09-26T04:52:31.000Z</time></trkpt>
        <trkpt lat="28.7868333" lon="104.6394437"><ele>265.35</ele><time>2025-09-26T04:52:47.000Z</time></trkpt>
        <trkpt lat="28.7867647" lon="104.639378"><ele>266.53</ele><time>2025-09-26T04:52:51.000Z</time></trkpt>
        <trkpt lat="28.7867647" lon="104.639378"><ele>266.53</ele><time>2025-09-26T04:53:03.000Z</time></trkpt>
        <trkpt lat="28.7866983" lon="104.639303"><ele>267.78</ele><time>2025-09-26T04:53:11.000Z</time></trkpt>
        <trkpt lat="28.7866292" lon="104.6392098"><ele>267</ele><time>2025-09-26T04:53:21.000Z</time></trkpt>
        <trkpt lat="28.7865589" lon="104.639126"><ele>266.63</ele><time>2025-09-26T04:53:29.000Z</time></trkpt>
        <trkpt lat="28.786483" lon="104.6390495"><ele>266.41</ele><time>2025-09-26T04:53:37.000Z</time></trkpt>
        <trkpt lat="28.7864094" lon="104.6389758"><ele>266.29</ele><time>2025-09-26T04:53:45.000Z</time></trkpt>
        <trkpt lat="28.7863276" lon="104.6389095"><ele>266.83</ele><time>2025-09-26T04:53:53.000Z</time></trkpt>
        <trkpt lat="28.786248" lon="104.6388459"><ele>266.8</ele><time>2025-09-26T04:54:01.000Z</time></trkpt>
        <trkpt lat="28.7861646" lon="104.6387886"><ele>267.02</ele><time>2025-09-26T04:54:09.000Z</time></trkpt>
        <trkpt lat="28.7860791" lon="104.6387332"><ele>267.19</ele><time>2025-09-26T04:54:17.000Z</time></trkpt>
        <trkpt lat="28.7859974" lon="104.6386724"><ele>267.37</ele><time>2025-09-26T04:54:25.000Z</time></trkpt>
        <trkpt lat="28.7859165" lon="104.6386059"><ele>266.76</ele><time>2025-09-26T04:54:33.000Z</time></trkpt>
        <trkpt lat="28.7858306" lon="104.6385411"><ele>266.3</ele><time>2025-09-26T04:54:41.000Z</time></trkpt>
        <trkpt lat="28.7857427" lon="104.6384787"><ele>264.67</ele><time>2025-09-26T04:54:49.000Z</time></trkpt>
        <trkpt lat="28.7856681" lon="104.6384046"><ele>262.99</ele><time>2025-09-26T04:54:57.000Z</time></trkpt>
        <trkpt lat="28.7855843" lon="104.6383437"><ele>262.36</ele><time>2025-09-26T04:55:07.000Z</time></trkpt>
        <trkpt lat="28.7854843" lon="104.6382561"><ele>262.13</ele><time>2025-09-26T04:55:20.000Z</time></trkpt>
        <trkpt lat="28.7853836" lon="104.6381966"><ele>263.08</ele><time>2025-09-26T04:55:27.000Z</time></trkpt>
        <trkpt lat="28.7852975" lon="104.6381381"><ele>264.02</ele><time>2025-09-26T04:55:35.000Z</time></trkpt>
        <trkpt lat="28.7852196" lon="104.6380644"><ele>264.74</ele><time>2025-09-26T04:55:45.000Z</time></trkpt>
        <trkpt lat="28.7851457" lon="104.6379683"><ele>264.85</ele><time>2025-09-26T04:55:55.000Z</time></trkpt>
        <trkpt lat="28.7850907" lon="104.6378685"><ele>264.67</ele><time>2025-09-26T04:56:05.000Z</time></trkpt>
        <trkpt lat="28.7850283" lon="104.6377667"><ele>264.5</ele><time>2025-09-26T04:56:15.000Z</time></trkpt>
        <trkpt lat="28.7849587" lon="104.6376857"><ele>263.86</ele><time>2025-09-26T04:56:23.000Z</time></trkpt>
        <trkpt lat="28.7848885" lon="104.6375986"><ele>263</ele><time>2025-09-26T04:56:31.000Z</time></trkpt>
        <trkpt lat="28.784849" lon="104.6374951"><ele>262.1</ele><time>2025-09-26T04:56:39.000Z</time></trkpt>
        <trkpt lat="28.7848553" lon="104.6373815"><ele>261.34</ele><time>2025-09-26T04:56:47.000Z</time></trkpt>
        <trkpt lat="28.7848829" lon="104.6372692"><ele>261.3</ele><time>2025-09-26T04:56:55.000Z</time></trkpt>
        <trkpt lat="28.7849147" lon="104.6371552"><ele>261.34</ele><time>2025-09-26T04:57:03.000Z</time></trkpt>
        <trkpt lat="28.7849499" lon="104.6370342"><ele>261.71</ele><time>2025-09-26T04:57:11.000Z</time></trkpt>
        <trkpt lat="28.7849906" lon="104.6369189"><ele>262.36</ele><time>2025-09-26T04:57:19.000Z</time></trkpt>
        <trkpt lat="28.7850109" lon="104.6368836"><ele>262.92</ele><time>2025-09-26T04:57:21.000Z</time></trkpt>
        <trkpt lat="28.7850109" lon="104.6368836"><ele>262.92</ele><time>2025-09-26T04:57:35.000Z</time></trkpt>
        <trkpt lat="28.7850109" lon="104.6368836"><ele>262.92</ele><time>2025-09-26T04:57:41.000Z</time></trkpt>
        <trkpt lat="28.7850109" lon="104.6368836"><ele>262.92</ele><time>2025-09-26T04:58:05.000Z</time></trkpt>
        <trkpt lat="28.7850542" lon="104.6368114"><ele>262.86</ele><time>2025-09-26T04:58:09.000Z</time></trkpt>
        <trkpt lat="28.7850542" lon="104.6368114"><ele>262.86</ele><time>2025-09-26T04:58:19.000Z</time></trkpt>
        <trkpt lat="28.7850936" lon="104.6367048"><ele>263.32</ele><time>2025-09-26T04:58:27.000Z</time></trkpt>
        <trkpt lat="28.785126" lon="104.6365738"><ele>264</ele><time>2025-09-26T04:58:37.000Z</time></trkpt>
        <trkpt lat="28.78514" lon="104.6364471"><ele>264.34</ele><time>2025-09-26T04:58:45.000Z</time></trkpt>
        <trkpt lat="28.7851626" lon="104.636336"><ele>266.24</ele><time>2025-09-26T04:58:53.000Z</time></trkpt>
        <trkpt lat="28.7852025" lon="104.6362295"><ele>266.51</ele><time>2025-09-26T04:59:01.000Z</time></trkpt>
        <trkpt lat="28.785254" lon="104.636137"><ele>266.07</ele><time>2025-09-26T04:59:09.000Z</time></trkpt>
        <trkpt lat="28.7852801" lon="104.6360298"><ele>265.98</ele><time>2025-09-26T04:59:17.000Z</time></trkpt>
        <trkpt lat="28.7852893" lon="104.6359173"><ele>266.37</ele><time>2025-09-26T04:59:25.000Z</time></trkpt>
        <trkpt lat="28.7852677" lon="104.6358106"><ele>265.65</ele><time>2025-09-26T04:59:33.000Z</time></trkpt>
        <trkpt lat="28.7852133" lon="104.6357172"><ele>265.48</ele><time>2025-09-26T04:59:41.000Z</time></trkpt>
        <trkpt lat="28.7851356" lon="104.6356444"><ele>265.68</ele><time>2025-09-26T04:59:49.000Z</time></trkpt>
        <trkpt lat="28.7850545" lon="104.6355851"><ele>266</ele><time>2025-09-26T04:59:57.000Z</time></trkpt>
        <trkpt lat="28.7849854" lon="104.6355061"><ele>266.78</ele><time>2025-09-26T05:00:05.000Z</time></trkpt>
        <trkpt lat="28.7849275" lon="104.6354237"><ele>266.88</ele><time>2025-09-26T05:00:13.000Z</time></trkpt>
        <trkpt lat="28.7848694" lon="104.6353405"><ele>266.36</ele><time>2025-09-26T05:00:21.000Z</time></trkpt>
        <trkpt lat="28.7848098" lon="104.6352473"><ele>266.48</ele><time>2025-09-26T05:00:29.000Z</time></trkpt>
        <trkpt lat="28.7847486" lon="104.6351576"><ele>265.67</ele><time>2025-09-26T05:00:37.000Z</time></trkpt>
        <trkpt lat="28.7846752" lon="104.6350836"><ele>265.31</ele><time>2025-09-26T05:00:45.000Z</time></trkpt>
        <trkpt lat="28.784608" lon="104.6350015"><ele>264.8</ele><time>2025-09-26T05:00:53.000Z</time></trkpt>
        <trkpt lat="28.7845409" lon="104.6349071"><ele>265.94</ele><time>2025-09-26T05:01:01.000Z</time></trkpt>
        <trkpt lat="28.7844559" lon="104.6348646"><ele>266.32</ele><time>2025-09-26T05:01:09.000Z</time></trkpt>
        <trkpt lat="28.784355" lon="104.6348648"><ele>266.35</ele><time>2025-09-26T05:01:17.000Z</time></trkpt>
        <trkpt lat="28.7842543" lon="104.6348748"><ele>266.69</ele><time>2025-09-26T05:01:25.000Z</time></trkpt>
        <trkpt lat="28.7841589" lon="104.6348776"><ele>266.96</ele><time>2025-09-26T05:01:33.000Z</time></trkpt>
        <trkpt lat="28.7840675" lon="104.6349269"><ele>265.7</ele><time>2025-09-26T05:01:41.000Z</time></trkpt>
        <trkpt lat="28.7839799" lon="104.6350009"><ele>266.01</ele><time>2025-09-26T05:01:49.000Z</time></trkpt>
        <trkpt lat="28.7838966" lon="104.6350656"><ele>266.99</ele><time>2025-09-26T05:01:57.000Z</time></trkpt>
        <trkpt lat="28.7838017" lon="104.6351136"><ele>267.01</ele><time>2025-09-26T05:02:05.000Z</time></trkpt>
        <trkpt lat="28.7836934" lon="104.6351172"><ele>267.4</ele><time>2025-09-26T05:02:15.000Z</time></trkpt>
        <trkpt lat="28.7835938" lon="104.6350539"><ele>267.76</ele><time>2025-09-26T05:02:25.000Z</time></trkpt>
        <trkpt lat="28.7835046" lon="104.6349752"><ele>267.15</ele><time>2025-09-26T05:02:33.000Z</time></trkpt>
        <trkpt lat="28.7834266" lon="104.6349007"><ele>266.76</ele><time>2025-09-26T05:02:41.000Z</time></trkpt>
        <trkpt lat="28.7833608" lon="104.6348068"><ele>266.89</ele><time>2025-09-26T05:02:49.000Z</time></trkpt>
        <trkpt lat="28.7832868" lon="104.6347198"><ele>267.26</ele><time>2025-09-26T05:02:57.000Z</time></trkpt>
        <trkpt lat="28.7832049" lon="104.6346479"><ele>268.07</ele><time>2025-09-26T05:03:05.000Z</time></trkpt>
        <trkpt lat="28.7831221" lon="104.6345814"><ele>268.23</ele><time>2025-09-26T05:03:13.000Z</time></trkpt>
        <trkpt lat="28.7830433" lon="104.6345136"><ele>268.06</ele><time>2025-09-26T05:03:21.000Z</time></trkpt>
        <trkpt lat="28.7829663" lon="104.6344261"><ele>267.84</ele><time>2025-09-26T05:03:31.000Z</time></trkpt>
        <trkpt lat="28.7829253" lon="104.6343568"><ele>267.48</ele><time>2025-09-26T05:03:39.000Z</time></trkpt>
        <trkpt lat="28.7828889" lon="104.6342592"><ele>267.62</ele><time>2025-09-26T05:03:53.000Z</time></trkpt>
        <trkpt lat="28.7828341" lon="104.6341685"><ele>267.81</ele><time>2025-09-26T05:04:03.000Z</time></trkpt>
        <trkpt lat="28.7827626" lon="104.6340771"><ele>267.52</ele><time>2025-09-26T05:04:11.000Z</time></trkpt>
        <trkpt lat="28.7826717" lon="104.6340183"><ele>267.42</ele><time>2025-09-26T05:04:19.000Z</time></trkpt>
        <trkpt lat="28.7825814" lon="104.6339675"><ele>267.52</ele><time>2025-09-26T05:04:27.000Z</time></trkpt>
        <trkpt lat="28.7825814" lon="104.6339675"><ele>267.52</ele><time>2025-09-26T05:04:31.000Z</time></trkpt>
        <trkpt lat="28.7824882" lon="104.6339273"><ele>266.59</ele><time>2025-09-26T05:04:35.000Z</time></trkpt>
        <trkpt lat="28.7824882" lon="104.6339273"><ele>266.59</ele><time>2025-09-26T05:04:35.000Z</time></trkpt>
        <trkpt lat="28.7823986" lon="104.6338828"><ele>266.11</ele><time>2025-09-26T05:04:43.000Z</time></trkpt>
        <trkpt lat="28.782311" lon="104.6338331"><ele>265.8</ele><time>2025-09-26T05:04:51.000Z</time></trkpt>
        <trkpt lat="28.7822176" lon="104.6337937"><ele>265.78</ele><time>2025-09-26T05:04:59.000Z</time></trkpt>
        <trkpt lat="28.7821179" lon="104.6337582"><ele>265.97</ele><time>2025-09-26T05:05:07.000Z</time></trkpt>
        <trkpt lat="28.7820305" lon="104.6336978"><ele>265.88</ele><time>2025-09-26T05:05:15.000Z</time></trkpt>
        <trkpt lat="28.7819557" lon="104.6336301"><ele>265.79</ele><time>2025-09-26T05:05:23.000Z</time></trkpt>
        <trkpt lat="28.7818791" lon="104.6335598"><ele>265.23</ele><time>2025-09-26T05:05:31.000Z</time></trkpt>
        <trkpt lat="28.7818012" lon="104.6334896"><ele>264.85</ele><time>2025-09-26T05:05:39.000Z</time></trkpt>
        <trkpt lat="28.7817275" lon="104.6334159"><ele>264.49</ele><time>2025-09-26T05:05:47.000Z</time></trkpt>
        <trkpt lat="28.7816618" lon="104.6333338"><ele>264.13</ele><time>2025-09-26T05:05:55.000Z</time></trkpt>
        <trkpt lat="28.7816091" lon="104.633242"><ele>263.78</ele><time>2025-09-26T05:06:03.000Z</time></trkpt>
        <trkpt lat="28.7815606" lon="104.6331436"><ele>263.47</ele><time>2025-09-26T05:06:11.000Z</time></trkpt>
        <trkpt lat="28.7815128" lon="104.6330449"><ele>263.23</ele><time>2025-09-26T05:06:19.000Z</time></trkpt>
        <trkpt lat="28.7814625" lon="104.6329483"><ele>263.63</ele><time>2025-09-26T05:06:27.000Z</time></trkpt>
        <trkpt lat="28.7814061" lon="104.6328583"><ele>263.51</ele><time>2025-09-26T05:06:35.000Z</time></trkpt>
        <trkpt lat="28.7813634" lon="104.6327591"><ele>263.28</ele><time>2025-09-26T05:06:43.000Z</time></trkpt>
        <trkpt lat="28.7813219" lon="104.6326595"><ele>263.26</ele><time>2025-09-26T05:06:51.000Z</time></trkpt>
        <trkpt lat="28.7812632" lon="104.6325657"><ele>262.86</ele><time>2025-09-26T05:07:01.000Z</time></trkpt>
        <trkpt lat="28.7812317" lon="104.6325355"><ele>263.03</ele><time>2025-09-26T05:07:05.000Z</time></trkpt>
        <trkpt lat="28.7812317" lon="104.6325355"><ele>263.03</ele><time>2025-09-26T05:07:17.000Z</time></trkpt>
        <trkpt lat="28.7812317" lon="104.6325355"><ele>263.03</ele><time>2025-09-26T05:07:21.000Z</time></trkpt>
        <trkpt lat="28.7812317" lon="104.6325355"><ele>263.03</ele><time>2025-09-26T05:07:37.000Z</time></trkpt>
        <trkpt lat="28.7811905" lon="104.632469"><ele>262.87</ele><time>2025-09-26T05:07:43.000Z</time></trkpt>
        <trkpt lat="28.7811905" lon="104.632469"><ele>262.87</ele><time>2025-09-26T05:07:55.000Z</time></trkpt>
        <trkpt lat="28.7811323" lon="104.6323868"><ele>262.09</ele><time>2025-09-26T05:08:03.000Z</time></trkpt>
        <trkpt lat="28.7810549" lon="104.6323107"><ele>260.89</ele><time>2025-09-26T05:08:11.000Z</time></trkpt>
        <trkpt lat="28.7809746" lon="104.6322334"><ele>260.75</ele><time>2025-09-26T05:08:19.000Z</time></trkpt>
        <trkpt lat="28.7809746" lon="104.6322334"><ele>260.75</ele><time>2025-09-26T05:08:21.000Z</time></trkpt>
        <trkpt lat="28.7808968" lon="104.6321476"><ele>260.84</ele><time>2025-09-26T05:08:25.000Z</time></trkpt>
        <trkpt lat="28.7808968" lon="104.6321476"><ele>260.84</ele><time>2025-09-26T05:08:27.000Z</time></trkpt>
        <trkpt lat="28.7808206" lon="104.6320554"><ele>260.22</ele><time>2025-09-26T05:08:35.000Z</time></trkpt>
        <trkpt lat="28.7807429" lon="104.6319532"><ele>259.05</ele><time>2025-09-26T05:08:43.000Z</time></trkpt>
        <trkpt lat="28.780655" lon="104.631872"><ele>257.8</ele><time>2025-09-26T05:08:51.000Z</time></trkpt>
        <trkpt lat="28.7805636" lon="104.6318103"><ele>255.99</ele><time>2025-09-26T05:08:59.000Z</time></trkpt>
        <trkpt lat="28.7804664" lon="104.631769"><ele>255.26</ele><time>2025-09-26T05:09:07.000Z</time></trkpt>
        <trkpt lat="28.7803719" lon="104.6317093"><ele>255.16</ele><time>2025-09-26T05:09:17.000Z</time></trkpt>
        <trkpt lat="28.7802758" lon="104.631656"><ele>255.26</ele><time>2025-09-26T05:09:25.000Z</time></trkpt>
        <trkpt lat="28.780183" lon="104.6315995"><ele>255.05</ele><time>2025-09-26T05:09:33.000Z</time></trkpt>
        <trkpt lat="28.7800993" lon="104.6315233"><ele>255.56</ele><time>2025-09-26T05:09:41.000Z</time></trkpt>
        <trkpt lat="28.7800173" lon="104.6314555"><ele>253.92</ele><time>2025-09-26T05:09:49.000Z</time></trkpt>
        <trkpt lat="28.7799294" lon="104.6313948"><ele>253.28</ele><time>2025-09-26T05:09:57.000Z</time></trkpt>
        <trkpt lat="28.7798613" lon="104.6313138"><ele>252.85</ele><time>2025-09-26T05:10:05.000Z</time></trkpt>
        <trkpt lat="28.7798231" lon="104.6312089"><ele>252.69</ele><time>2025-09-26T05:10:13.000Z</time></trkpt>
        <trkpt lat="28.7798165" lon="104.6310862"><ele>252.33</ele><time>2025-09-26T05:10:21.000Z</time></trkpt>
        <trkpt lat="28.7798125" lon="104.6309581"><ele>252.22</ele><time>2025-09-26T05:10:29.000Z</time></trkpt>
        <trkpt lat="28.7797954" lon="104.630839"><ele>252.54</ele><time>2025-09-26T05:10:37.000Z</time></trkpt>
        <trkpt lat="28.7797608" lon="104.6307333"><ele>251.45</ele><time>2025-09-26T05:10:45.000Z</time></trkpt>
        <trkpt lat="28.7796995" lon="104.630642"><ele>250.41</ele><time>2025-09-26T05:10:55.000Z</time></trkpt>
        <trkpt lat="28.779617" lon="104.6305652"><ele>249.46</ele><time>2025-09-26T05:11:03.000Z</time></trkpt>
        <trkpt lat="28.7795428" lon="104.6304832"><ele>249.94</ele><time>2025-09-26T05:11:11.000Z</time></trkpt>
        <trkpt lat="28.7794972" lon="104.6303872"><ele>250.9</ele><time>2025-09-26T05:11:19.000Z</time></trkpt>
        <trkpt lat="28.7794834" lon="104.6302853"><ele>251.25</ele><time>2025-09-26T05:11:27.000Z</time></trkpt>
        <trkpt lat="28.7794603" lon="104.6301684"><ele>250.63</ele><time>2025-09-26T05:11:37.000Z</time></trkpt>
        <trkpt lat="28.7794236" lon="104.6300575"><ele>249.89</ele><time>2025-09-26T05:11:45.000Z</time></trkpt>
        <trkpt lat="28.7793949" lon="104.6299413"><ele>249.73</ele><time>2025-09-26T05:11:53.000Z</time></trkpt>
        <trkpt lat="28.7793795" lon="104.629827"><ele>248.77</ele><time>2025-09-26T05:12:01.000Z</time></trkpt>
        <trkpt lat="28.7793608" lon="104.6297178"><ele>247.1</ele><time>2025-09-26T05:12:09.000Z</time></trkpt>
        <trkpt lat="28.779346" lon="104.6296013"><ele>246.33</ele><time>2025-09-26T05:12:17.000Z</time></trkpt>
        <trkpt lat="28.7793178" lon="104.629487"><ele>245.5</ele><time>2025-09-26T05:12:25.000Z</time></trkpt>
        <trkpt lat="28.7792901" lon="104.6293731"><ele>243.71</ele><time>2025-09-26T05:12:33.000Z</time></trkpt>
        <trkpt lat="28.7792705" lon="104.6292684"><ele>242.58</ele><time>2025-09-26T05:12:41.000Z</time></trkpt>
        <trkpt lat="28.7792304" lon="104.6291756"><ele>240.97</ele><time>2025-09-26T05:12:49.000Z</time></trkpt>
        <trkpt lat="28.7791693" lon="104.629088"><ele>240.41</ele><time>2025-09-26T05:12:57.000Z</time></trkpt>
        <trkpt lat="28.7791014" lon="104.6290069"><ele>241.22</ele><time>2025-09-26T05:13:05.000Z</time></trkpt>
        <trkpt lat="28.7790142" lon="104.6289538"><ele>240.41</ele><time>2025-09-26T05:13:13.000Z</time></trkpt>
        <trkpt lat="28.7789726" lon="104.6289417"><ele>241.87</ele><time>2025-09-26T05:13:17.000Z</time></trkpt>
        <trkpt lat="28.7788948" lon="104.6289301"><ele>242.72</ele><time>2025-09-26T05:13:37.000Z</time></trkpt>
        <trkpt lat="28.7788679" lon="104.628928"><ele>244.42</ele><time>2025-09-26T05:13:39.000Z</time></trkpt>
        <trkpt lat="28.7788259" lon="104.6288671"><ele>245.33</ele><time>2025-09-26T05:13:59.000Z</time></trkpt>
        <trkpt lat="28.7788147" lon="104.6287593"><ele>245.08</ele><time>2025-09-26T05:14:07.000Z</time></trkpt>
        <trkpt lat="28.7787815" lon="104.6286804"><ele>243.93</ele><time>2025-09-26T05:14:15.000Z</time></trkpt>
        <trkpt lat="28.7787815" lon="104.6286804"><ele>243.93</ele><time>2025-09-26T05:14:35.000Z</time></trkpt>
        <trkpt lat="28.7787815" lon="104.6286804"><ele>243.93</ele><time>2025-09-26T05:14:37.000Z</time></trkpt>
        <trkpt lat="28.7787815" lon="104.6286804"><ele>243.93</ele><time>2025-09-26T05:14:51.000Z</time></trkpt>
        <trkpt lat="28.7787815" lon="104.6286804"><ele>243.93</ele><time>2025-09-26T05:14:53.000Z</time></trkpt>
        <trkpt lat="28.7787815" lon="104.6286804"><ele>243.93</ele><time>2025-09-26T05:15:11.000Z</time></trkpt>
        <trkpt lat="28.7787815" lon="104.6286804"><ele>243.93</ele><time>2025-09-26T05:15:15.000Z</time></trkpt>
        <trkpt lat="28.7787815" lon="104.6286804"><ele>243.93</ele><time>2025-09-26T05:16:03.000Z</time></trkpt>
        <trkpt lat="28.77887" lon="104.628666"><ele>243.15</ele><time>2025-09-26T05:16:07.000Z</time></trkpt>
        <trkpt lat="28.77887" lon="104.628666"><ele>243.15</ele><time>2025-09-26T05:16:23.000Z</time></trkpt>
        <trkpt lat="28.7789699" lon="104.6286156"><ele>244.31</ele><time>2025-09-26T05:16:35.000Z</time></trkpt>
        <trkpt lat="28.779032" lon="104.6285778"><ele>244.69</ele><time>2025-09-26T05:16:43.000Z</time></trkpt>
        <trkpt lat="28.779032" lon="104.6285778"><ele>244.69</ele><time>2025-09-26T05:16:59.000Z</time></trkpt>
        <trkpt lat="28.779032" lon="104.6285778"><ele>244.69</ele><time>2025-09-26T05:17:01.000Z</time></trkpt>
        <trkpt lat="28.779032" lon="104.6285778"><ele>244.69</ele><time>2025-09-26T05:17:17.000Z</time></trkpt>
        <trkpt lat="28.7791136" lon="104.6285523"><ele>244.93</ele><time>2025-09-26T05:17:23.000Z</time></trkpt>
        <trkpt lat="28.7791136" lon="104.6285523"><ele>244.93</ele><time>2025-09-26T05:17:29.000Z</time></trkpt>
        <trkpt lat="28.779185" lon="104.6285275"><ele>244.6</ele><time>2025-09-26T05:17:39.000Z</time></trkpt>
        <trkpt lat="28.7792763" lon="104.6284943"><ele>244.73</ele><time>2025-09-26T05:17:49.000Z</time></trkpt>
        <trkpt lat="28.7793603" lon="104.6284428"><ele>245.22</ele><time>2025-09-26T05:17:59.000Z</time></trkpt>
        <trkpt lat="28.7794477" lon="104.6283906"><ele>244.91</ele><time>2025-09-26T05:18:11.000Z</time></trkpt>
        <trkpt lat="28.7795398" lon="104.6283288"><ele>245.42</ele><time>2025-09-26T05:18:21.000Z</time></trkpt>
        <trkpt lat="28.7796282" lon="104.6282664"><ele>244.95</ele><time>2025-09-26T05:18:29.000Z</time></trkpt>
        <trkpt lat="28.7797089" lon="104.6281891"><ele>244.58</ele><time>2025-09-26T05:18:39.000Z</time></trkpt>
        <trkpt lat="28.7797421" lon="104.628157"><ele>243.29</ele><time>2025-09-26T05:18:45.000Z</time></trkpt>
        <trkpt lat="28.7798031" lon="104.6280953"><ele>242.51</ele><time>2025-09-26T05:18:57.000Z</time></trkpt>
        <trkpt lat="28.7798753" lon="104.6280177"><ele>242.22</ele><time>2025-09-26T05:19:11.000Z</time></trkpt>
        <trkpt lat="28.7799441" lon="104.6279421"><ele>241.88</ele><time>2025-09-26T05:19:21.000Z</time></trkpt>
        <trkpt lat="28.780014" lon="104.627859"><ele>241.48</ele><time>2025-09-26T05:19:31.000Z</time></trkpt>
        <trkpt lat="28.7800791" lon="104.6277811"><ele>241.11</ele><time>2025-09-26T05:19:39.000Z</time></trkpt>
        <trkpt lat="28.780149" lon="104.6277014"><ele>241.27</ele><time>2025-09-26T05:19:47.000Z</time></trkpt>
        <trkpt lat="28.7802098" lon="104.6276176"><ele>242.65</ele><time>2025-09-26T05:19:55.000Z</time></trkpt>
        <trkpt lat="28.7802617" lon="104.6275315"><ele>244.05</ele><time>2025-09-26T05:20:03.000Z</time></trkpt>
        <trkpt lat="28.7803138" lon="104.6274396"><ele>244.92</ele><time>2025-09-26T05:20:11.000Z</time></trkpt>
        <trkpt lat="28.7803562" lon="104.6273412"><ele>245.65</ele><time>2025-09-26T05:20:19.000Z</time></trkpt>
        <trkpt lat="28.7803993" lon="104.6272313"><ele>246.03</ele><time>2025-09-26T05:20:29.000Z</time></trkpt>
        <trkpt lat="28.7804473" lon="104.6271146"><ele>246.72</ele><time>2025-09-26T05:20:39.000Z</time></trkpt>
        <trkpt lat="28.7804816" lon="104.6270055"><ele>247.55</ele><time>2025-09-26T05:20:47.000Z</time></trkpt>
        <trkpt lat="28.7805014" lon="104.6269133"><ele>248.13</ele><time>2025-09-26T05:20:55.000Z</time></trkpt>
        <trkpt lat="28.7805303" lon="104.6268106"><ele>248.52</ele><time>2025-09-26T05:21:09.000Z</time></trkpt>
        <trkpt lat="28.7805397" lon="104.6266955"><ele>248.9</ele><time>2025-09-26T05:21:19.000Z</time></trkpt>
        <trkpt lat="28.7805386" lon="104.6265858"><ele>249.66</ele><time>2025-09-26T05:21:27.000Z</time></trkpt>
        <trkpt lat="28.7805437" lon="104.6264727"><ele>250.4</ele><time>2025-09-26T05:21:35.000Z</time></trkpt>
        <trkpt lat="28.7805416" lon="104.6263575"><ele>250.84</ele><time>2025-09-26T05:21:43.000Z</time></trkpt>
        <trkpt lat="28.7805064" lon="104.6262595"><ele>251.31</ele><time>2025-09-26T05:21:51.000Z</time></trkpt>
        <trkpt lat="28.7804696" lon="104.6261898"><ele>251.75</ele><time>2025-09-26T05:21:59.000Z</time></trkpt>
        <trkpt lat="28.7804696" lon="104.6261898"><ele>251.75</ele><time>2025-09-26T05:22:11.000Z</time></trkpt>
        <trkpt lat="28.7804843" lon="104.62609"><ele>252.19</ele><time>2025-09-26T05:22:15.000Z</time></trkpt>
        <trkpt lat="28.7804843" lon="104.62609"><ele>252.19</ele><time>2025-09-26T05:22:31.000Z</time></trkpt>
        <trkpt lat="28.780485" lon="104.6259714"><ele>251.81</ele><time>2025-09-26T05:22:41.000Z</time></trkpt>
        <trkpt lat="28.7804807" lon="104.6258507"><ele>251.5</ele><time>2025-09-26T05:22:51.000Z</time></trkpt>
        <trkpt lat="28.7804805" lon="104.6257344"><ele>250.51</ele><time>2025-09-26T05:23:01.000Z</time></trkpt>
        <trkpt lat="28.7804783" lon="104.6256204"><ele>248.98</ele><time>2025-09-26T05:23:09.000Z</time></trkpt>
        <trkpt lat="28.780468" lon="104.6254969"><ele>247.77</ele><time>2025-09-26T05:23:19.000Z</time></trkpt>
        <trkpt lat="28.7804437" lon="104.6254219"><ele>246.88</ele><time>2025-09-26T05:23:29.000Z</time></trkpt>
        <trkpt lat="28.7804321" lon="104.6253176"><ele>246.7</ele><time>2025-09-26T05:23:45.000Z</time></trkpt>
        <trkpt lat="28.7804361" lon="104.6252096"><ele>245.77</ele><time>2025-09-26T05:23:53.000Z</time></trkpt>
        <trkpt lat="28.7804333" lon="104.6250934"><ele>244.56</ele><time>2025-09-26T05:24:03.000Z</time></trkpt>
        <trkpt lat="28.7803979" lon="104.6249898"><ele>243.94</ele><time>2025-09-26T05:24:11.000Z</time></trkpt>
        <trkpt lat="28.7803521" lon="104.6248943"><ele>243.76</ele><time>2025-09-26T05:24:19.000Z</time></trkpt>
        <trkpt lat="28.7803005" lon="104.6248035"><ele>244.42</ele><time>2025-09-26T05:24:29.000Z</time></trkpt>
        <trkpt lat="28.7802492" lon="104.6247164"><ele>244.21</ele><time>2025-09-26T05:24:37.000Z</time></trkpt>
        <trkpt lat="28.7802102" lon="104.6246138"><ele>243.44</ele><time>2025-09-26T05:24:45.000Z</time></trkpt>
        <trkpt lat="28.7801793" lon="104.6245099"><ele>243.14</ele><time>2025-09-26T05:24:53.000Z</time></trkpt>
        <trkpt lat="28.780151" lon="104.6244096"><ele>243.22</ele><time>2025-09-26T05:25:01.000Z</time></trkpt>
        <trkpt lat="28.7801116" lon="104.6243101"><ele>243.24</ele><time>2025-09-26T05:25:09.000Z</time></trkpt>
        <trkpt lat="28.7800749" lon="104.6242076"><ele>242.95</ele><time>2025-09-26T05:25:17.000Z</time></trkpt>
        <trkpt lat="28.7800383" lon="104.624102"><ele>243.35</ele><time>2025-09-26T05:25:25.000Z</time></trkpt>
        <trkpt lat="28.7799995" lon="104.6239985"><ele>243.49</ele><time>2025-09-26T05:25:33.000Z</time></trkpt>
        <trkpt lat="28.7799512" lon="104.6238945"><ele>243.28</ele><time>2025-09-26T05:25:41.000Z</time></trkpt>
        <trkpt lat="28.7799027" lon="104.6237955"><ele>243.23</ele><time>2025-09-26T05:25:49.000Z</time></trkpt>
        <trkpt lat="28.7798536" lon="104.6237021"><ele>243.5</ele><time>2025-09-26T05:25:57.000Z</time></trkpt>
        <trkpt lat="28.7798345" lon="104.6236655"><ele>244.05</ele><time>2025-09-26T05:26:01.000Z</time></trkpt>
        <trkpt lat="28.7798345" lon="104.6236655"><ele>244.05</ele><time>2025-09-26T05:26:13.000Z</time></trkpt>
        <trkpt lat="28.7798345" lon="104.6236655"><ele>244.05</ele><time>2025-09-26T05:26:17.000Z</time></trkpt>
        <trkpt lat="28.7798345" lon="104.6236655"><ele>244.05</ele><time>2025-09-26T05:27:23.000Z</time></trkpt>
        <trkpt lat="28.7798213" lon="104.6235827"><ele>244.76</ele><time>2025-09-26T05:27:29.000Z</time></trkpt>
        <trkpt lat="28.7798213" lon="104.6235827"><ele>244.76</ele><time>2025-09-26T05:28:07.000Z</time></trkpt>
        <trkpt lat="28.7798241" lon="104.6234621"><ele>245.07</ele><time>2025-09-26T05:28:17.000Z</time></trkpt>
        <trkpt lat="28.7798464" lon="104.6233594"><ele>245.25</ele><time>2025-09-26T05:28:25.000Z</time></trkpt>
        <trkpt lat="28.7798672" lon="104.6232523"><ele>245.45</ele><time>2025-09-26T05:28:33.000Z</time></trkpt>
        <trkpt lat="28.7799089" lon="104.6231379"><ele>246.91</ele><time>2025-09-26T05:28:41.000Z</time></trkpt>
        <trkpt lat="28.7799637" lon="104.6230367"><ele>248.14</ele><time>2025-09-26T05:28:49.000Z</time></trkpt>
        <trkpt lat="28.7800127" lon="104.6229305"><ele>248.68</ele><time>2025-09-26T05:28:57.000Z</time></trkpt>
        <trkpt lat="28.7800212" lon="104.622883"><ele>247.04</ele><time>2025-09-26T05:29:05.000Z</time></trkpt>
        <trkpt lat="28.7800629" lon="104.6228148"><ele>246.76</ele><time>2025-09-26T05:29:39.000Z</time></trkpt>
        <trkpt lat="28.7800963" lon="104.6227584"><ele>246.71</ele><time>2025-09-26T05:29:45.000Z</time></trkpt>
        <trkpt lat="28.7800963" lon="104.6227584"><ele>246.71</ele><time>2025-09-26T05:30:03.000Z</time></trkpt>
        <trkpt lat="28.7800963" lon="104.6227584"><ele>246.71</ele><time>2025-09-26T05:30:09.000Z</time></trkpt>
        <trkpt lat="28.7800963" lon="104.6227584"><ele>246.71</ele><time>2025-09-26T05:30:59.000Z</time></trkpt>
        <trkpt lat="28.7801719" lon="104.6226927"><ele>247.06</ele><time>2025-09-26T05:31:03.000Z</time></trkpt>
        <trkpt lat="28.7801719" lon="104.6226927"><ele>247.06</ele><time>2025-09-26T05:31:25.000Z</time></trkpt>
        <trkpt lat="28.7801946" lon="104.6226574"><ele>247.88</ele><time>2025-09-26T05:31:33.000Z</time></trkpt>
        <trkpt lat="28.7801946" lon="104.6226574"><ele>247.88</ele><time>2025-09-26T05:31:49.000Z</time></trkpt>
        <trkpt lat="28.7802792" lon="104.6225945"><ele>248.18</ele><time>2025-09-26T05:31:53.000Z</time></trkpt>
        <trkpt lat="28.7802792" lon="104.6225945"><ele>248.18</ele><time>2025-09-26T05:32:15.000Z</time></trkpt>
        <trkpt lat="28.780361" lon="104.6225342"><ele>248.13</ele><time>2025-09-26T05:32:23.000Z</time></trkpt>
        <trkpt lat="28.7804423" lon="104.6224751"><ele>247.78</ele><time>2025-09-26T05:32:31.000Z</time></trkpt>
        <trkpt lat="28.780519" lon="104.6223968"><ele>247.3</ele><time>2025-09-26T05:32:39.000Z</time></trkpt>
        <trkpt lat="28.7805904" lon="104.6223115"><ele>247.17</ele><time>2025-09-26T05:32:47.000Z</time></trkpt>
        <trkpt lat="28.7806443" lon="104.6222073"><ele>247.34</ele><time>2025-09-26T05:32:55.000Z</time></trkpt>
        <trkpt lat="28.7807042" lon="104.622119"><ele>247.29</ele><time>2025-09-26T05:33:07.000Z</time></trkpt>
        <trkpt lat="28.7807391" lon="104.6220133"><ele>246.03</ele><time>2025-09-26T05:33:41.000Z</time></trkpt>
        <trkpt lat="28.7807949" lon="104.6219302"><ele>245.29</ele><time>2025-09-26T05:33:51.000Z</time></trkpt>
        <trkpt lat="28.7808797" lon="104.6218919"><ele>244.42</ele><time>2025-09-26T05:33:59.000Z</time></trkpt>
        <trkpt lat="28.7809539" lon="104.6218239"><ele>243.31</ele><time>2025-09-26T05:34:07.000Z</time></trkpt>
        <trkpt lat="28.7809905" lon="104.6217275"><ele>243.03</ele><time>2025-09-26T05:34:15.000Z</time></trkpt>
        <trkpt lat="28.780977" lon="104.6216162"><ele>244.65</ele><time>2025-09-26T05:34:23.000Z</time></trkpt>
        <trkpt lat="28.7809592" lon="104.6215054"><ele>249.12</ele><time>2025-09-26T05:34:33.000Z</time></trkpt>
        <trkpt lat="28.7809567" lon="104.6213819"><ele>253.87</ele><time>2025-09-26T05:34:45.000Z</time></trkpt>
        <trkpt lat="28.78095" lon="104.6212636"><ele>254.82</ele><time>2025-09-26T05:34:53.000Z</time></trkpt>
        <trkpt lat="28.7809334" lon="104.6211468"><ele>254.71</ele><time>2025-09-26T05:35:01.000Z</time></trkpt>
        <trkpt lat="28.7809233" lon="104.6210367"><ele>254</ele><time>2025-09-26T05:35:09.000Z</time></trkpt>
        <trkpt lat="28.7809142" lon="104.6209219"><ele>253.12</ele><time>2025-09-26T05:35:17.000Z</time></trkpt>
        <trkpt lat="28.7809023" lon="104.6208081"><ele>252.06</ele><time>2025-09-26T05:35:25.000Z</time></trkpt>
        <trkpt lat="28.7808812" lon="104.6206951"><ele>251.01</ele><time>2025-09-26T05:35:33.000Z</time></trkpt>
        <trkpt lat="28.7808616" lon="104.6205873"><ele>251.15</ele><time>2025-09-26T05:35:43.000Z</time></trkpt>
        <trkpt lat="28.7808429" lon="104.6204737"><ele>251.46</ele><time>2025-09-26T05:35:55.000Z</time></trkpt>
        <trkpt lat="28.7808267" lon="104.6203605"><ele>251.8</ele><time>2025-09-26T05:36:05.000Z</time></trkpt>
        <trkpt lat="28.7808068" lon="104.6202388"><ele>251.83</ele><time>2025-09-26T05:36:15.000Z</time></trkpt>
        <trkpt lat="28.7807946" lon="104.6201255"><ele>252.48</ele><time>2025-09-26T05:36:23.000Z</time></trkpt>
        <trkpt lat="28.7807813" lon="104.620013"><ele>253.63</ele><time>2025-09-26T05:36:31.000Z</time></trkpt>
        <trkpt lat="28.7807714" lon="104.6199046"><ele>254.71</ele><time>2025-09-26T05:36:39.000Z</time></trkpt>
        <trkpt lat="28.7807528" lon="104.6197999"><ele>254.72</ele><time>2025-09-26T05:36:47.000Z</time></trkpt>
        <trkpt lat="28.7807249" lon="104.6196852"><ele>254.76</ele><time>2025-09-26T05:36:57.000Z</time></trkpt>
        <trkpt lat="28.7806918" lon="104.6195663"><ele>256.26</ele><time>2025-09-26T05:37:07.000Z</time></trkpt>
        <trkpt lat="28.7806825" lon="104.6194549"><ele>257.52</ele><time>2025-09-26T05:37:15.000Z</time></trkpt>
        <trkpt lat="28.7806879" lon="104.6193392"><ele>257.3</ele><time>2025-09-26T05:37:23.000Z</time></trkpt>
        <trkpt lat="28.7806749" lon="104.619221"><ele>255.73</ele><time>2025-09-26T05:37:33.000Z</time></trkpt>
        <trkpt lat="28.7806569" lon="104.6191148"><ele>255.45</ele><time>2025-09-26T05:37:41.000Z</time></trkpt>
        <trkpt lat="28.7806466" lon="104.619009"><ele>256.35</ele><time>2025-09-26T05:37:49.000Z</time></trkpt>
        <trkpt lat="28.78064" lon="104.6188987"><ele>257.42</ele><time>2025-09-26T05:37:57.000Z</time></trkpt>
        <trkpt lat="28.7806169" lon="104.6187848"><ele>257.11</ele><time>2025-09-26T05:38:07.000Z</time></trkpt>
        <trkpt lat="28.78061" lon="104.6187587"><ele>257.11</ele><time>2025-09-26T05:38:09.000Z</time></trkpt>
        <trkpt lat="28.7806275" lon="104.6186877"><ele>257.12</ele><time>2025-09-26T05:38:29.000Z</time></trkpt>
        <trkpt lat="28.780622" lon="104.618588"><ele>257.07</ele><time>2025-09-26T05:38:37.000Z</time></trkpt>
        <trkpt lat="28.7806081" lon="104.6184837"><ele>257.3</ele><time>2025-09-26T05:38:49.000Z</time></trkpt>
        <trkpt lat="28.7805902" lon="104.6183757"><ele>256.45</ele><time>2025-09-26T05:39:01.000Z</time></trkpt>
        <trkpt lat="28.780574" lon="104.6182643"><ele>255.77</ele><time>2025-09-26T05:39:09.000Z</time></trkpt>
        <trkpt lat="28.7805634" lon="104.6181445"><ele>255.27</ele><time>2025-09-26T05:39:19.000Z</time></trkpt>
        <trkpt lat="28.7805647" lon="104.618104"><ele>254.66</ele><time>2025-09-26T05:39:23.000Z</time></trkpt>
        <trkpt lat="28.7805647" lon="104.618104"><ele>254.66</ele><time>2025-09-26T05:39:35.000Z</time></trkpt>
        <trkpt lat="28.7805587" lon="104.6180127"><ele>254.3</ele><time>2025-09-26T05:39:37.000Z</time></trkpt>
        <trkpt lat="28.7805587" lon="104.6180127"><ele>254.3</ele><time>2025-09-26T05:39:41.000Z</time></trkpt>
        <trkpt lat="28.7805468" lon="104.617908"><ele>252.68</ele><time>2025-09-26T05:39:45.000Z</time></trkpt>
        <trkpt lat="28.780524" lon="104.6177909"><ele>251.51</ele><time>2025-09-26T05:39:49.000Z</time></trkpt>
        <trkpt lat="28.7805316" lon="104.6176805"><ele>251.99</ele><time>2025-09-26T05:39:57.000Z</time></trkpt>
        <trkpt lat="28.7805255" lon="104.6175673"><ele>252.82</ele><time>2025-09-26T05:40:07.000Z</time></trkpt>
        <trkpt lat="28.78051" lon="104.6174543"><ele>253.38</ele><time>2025-09-26T05:40:15.000Z</time></trkpt>
        <trkpt lat="28.780505" lon="104.6173339"><ele>253.47</ele><time>2025-09-26T05:40:23.000Z</time></trkpt>
        <trkpt lat="28.7805037" lon="104.6172194"><ele>254.46</ele><time>2025-09-26T05:40:29.000Z</time></trkpt>
        <trkpt lat="28.7805169" lon="104.6170916"><ele>255.46</ele><time>2025-09-26T05:40:37.000Z</time></trkpt>
        <trkpt lat="28.7805242" lon="104.6169732"><ele>256.06</ele><time>2025-09-26T05:40:45.000Z</time></trkpt>
        <trkpt lat="28.7805219" lon="104.6168636"><ele>257.51</ele><time>2025-09-26T05:40:53.000Z</time></trkpt>
        <trkpt lat="28.7805281" lon="104.6167531"><ele>258.88</ele><time>2025-09-26T05:40:59.000Z</time></trkpt>
        <trkpt lat="28.7805417" lon="104.6166479"><ele>258.33</ele><time>2025-09-26T05:41:09.000Z</time></trkpt>
        <trkpt lat="28.7805313" lon="104.6165429"><ele>255.47</ele><time>2025-09-26T05:41:17.000Z</time></trkpt>
        <trkpt lat="28.7805031" lon="104.6164355"><ele>253.4</ele><time>2025-09-26T05:41:25.000Z</time></trkpt>
        <trkpt lat="28.7804722" lon="104.616333"><ele>251.55</ele><time>2025-09-26T05:41:33.000Z</time></trkpt>
        <trkpt lat="28.7804452" lon="104.6162173"><ele>249.38</ele><time>2025-09-26T05:41:41.000Z</time></trkpt>
        <trkpt lat="28.7804444" lon="104.6160931"><ele>247.55</ele><time>2025-09-26T05:41:51.000Z</time></trkpt>
        <trkpt lat="28.780498" lon="104.6159909"><ele>246.58</ele><time>2025-09-26T05:42:05.000Z</time></trkpt>
        <trkpt lat="28.7805795" lon="104.6159262"><ele>244.93</ele><time>2025-09-26T05:42:15.000Z</time></trkpt>
        <trkpt lat="28.7806748" lon="104.615899"><ele>243.9</ele><time>2025-09-26T05:42:23.000Z</time></trkpt>
        <trkpt lat="28.7807765" lon="104.6158912"><ele>242.81</ele><time>2025-09-26T05:42:31.000Z</time></trkpt>
        <trkpt lat="28.7808869" lon="104.6158951"><ele>242.15</ele><time>2025-09-26T05:42:39.000Z</time></trkpt>
        <trkpt lat="28.780993" lon="104.6158488"><ele>240.87</ele><time>2025-09-26T05:42:47.000Z</time></trkpt>
        <trkpt lat="28.7810906" lon="104.6158223"><ele>241.1</ele><time>2025-09-26T05:42:55.000Z</time></trkpt>
        <trkpt lat="28.7811389" lon="104.6158183"><ele>239.92</ele><time>2025-09-26T05:42:59.000Z</time></trkpt>
        <trkpt lat="28.7812178" lon="104.6158122"><ele>240.13</ele><time>2025-09-26T05:43:09.000Z</time></trkpt>
        <trkpt lat="28.7813098" lon="104.615804"><ele>240.21</ele><time>2025-09-26T05:43:17.000Z</time></trkpt>
        <trkpt lat="28.7814085" lon="104.6157679"><ele>240.84</ele><time>2025-09-26T05:43:27.000Z</time></trkpt>
        <trkpt lat="28.7815179" lon="104.6157334"><ele>241.74</ele><time>2025-09-26T05:43:37.000Z</time></trkpt>
        <trkpt lat="28.7815737" lon="104.6156959"><ele>242.15</ele><time>2025-09-26T05:43:45.000Z</time></trkpt>
        <trkpt lat="28.7815737" lon="104.6156959"><ele>242.15</ele><time>2025-09-26T05:43:55.000Z</time></trkpt>
        <trkpt lat="28.7815737" lon="104.6156959"><ele>242.15</ele><time>2025-09-26T05:43:59.000Z</time></trkpt>
        <trkpt lat="28.7815737" lon="104.6156959"><ele>242.15</ele><time>2025-09-26T05:44:19.000Z</time></trkpt>
        <trkpt lat="28.7815737" lon="104.6156959"><ele>242.15</ele><time>2025-09-26T05:44:23.000Z</time></trkpt>
        <trkpt lat="28.7815737" lon="104.6156959"><ele>242.15</ele><time>2025-09-26T05:44:55.000Z</time></trkpt>
        <trkpt lat="28.7816487" lon="104.6157037"><ele>242.96</ele><time>2025-09-26T05:45:01.000Z</time></trkpt>
        <trkpt lat="28.7816487" lon="104.6157037"><ele>242.96</ele><time>2025-09-26T05:45:25.000Z</time></trkpt>
        <trkpt lat="28.7817381" lon="104.615749"><ele>244.15</ele><time>2025-09-26T05:45:33.000Z</time></trkpt>
        <trkpt lat="28.7817873" lon="104.6157699"><ele>245.58</ele><time>2025-09-26T05:45:39.000Z</time></trkpt>
        <trkpt lat="28.7817873" lon="104.6157699"><ele>245.58</ele><time>2025-09-26T05:45:51.000Z</time></trkpt>
        <trkpt lat="28.7818806" lon="104.6157799"><ele>246.28</ele><time>2025-09-26T05:45:53.000Z</time></trkpt>
        <trkpt lat="28.7818806" lon="104.6157799"><ele>246.28</ele><time>2025-09-26T05:46:15.000Z</time></trkpt>
        <trkpt lat="28.7819864" lon="104.615774"><ele>248.63</ele><time>2025-09-26T05:46:25.000Z</time></trkpt>
        <trkpt lat="28.78208" lon="104.6157065"><ele>247.54</ele><time>2025-09-26T05:46:35.000Z</time></trkpt>
        <trkpt lat="28.7821714" lon="104.6156445"><ele>244.67</ele><time>2025-09-26T05:46:43.000Z</time></trkpt>
        <trkpt lat="28.7822607" lon="104.6155644"><ele>241.88</ele><time>2025-09-26T05:46:53.000Z</time></trkpt>
        <trkpt lat="28.7823467" lon="104.6154874"><ele>237.98</ele><time>2025-09-26T05:47:01.000Z</time></trkpt>
        <trkpt lat="28.7824225" lon="104.6154158"><ele>236.44</ele><time>2025-09-26T05:47:09.000Z</time></trkpt>
        <trkpt lat="28.7824922" lon="104.615341"><ele>234.81</ele><time>2025-09-26T05:47:17.000Z</time></trkpt>
        <trkpt lat="28.7825734" lon="104.6152671"><ele>233.41</ele><time>2025-09-26T05:47:25.000Z</time></trkpt>
        <trkpt lat="28.7826698" lon="104.6152037"><ele>232.75</ele><time>2025-09-26T05:47:33.000Z</time></trkpt>
        <trkpt lat="28.7827778" lon="104.615152"><ele>233.67</ele><time>2025-09-26T05:47:41.000Z</time></trkpt>
        <trkpt lat="28.7828807" lon="104.6151102"><ele>235.1</ele><time>2025-09-26T05:47:49.000Z</time></trkpt>
        <trkpt lat="28.7828807" lon="104.6151102"><ele>235.1</ele><time>2025-09-26T05:47:59.000Z</time></trkpt>
        <trkpt lat="28.7829738" lon="104.6150599"><ele>235.98</ele><time>2025-09-26T05:48:18.000Z</time></trkpt>
        <trkpt lat="28.7829738" lon="104.6150599"><ele>235.98</ele><time>2025-09-26T05:48:25.000Z</time></trkpt>
        <trkpt lat="28.7830575" lon="104.6150122"><ele>236.96</ele><time>2025-09-26T05:48:33.000Z</time></trkpt>
        <trkpt lat="28.78314" lon="104.6149626"><ele>237.4</ele><time>2025-09-26T05:48:41.000Z</time></trkpt>
        <trkpt lat="28.7832257" lon="104.6149017"><ele>237.58</ele><time>2025-09-26T05:48:49.000Z</time></trkpt>
        <trkpt lat="28.7833079" lon="104.6148255"><ele>238.61</ele><time>2025-09-26T05:48:57.000Z</time></trkpt>
        <trkpt lat="28.7833982" lon="104.6148055"><ele>239.27</ele><time>2025-09-26T05:49:07.000Z</time></trkpt>
        <trkpt lat="28.7834901" lon="104.6148652"><ele>237.97</ele><time>2025-09-26T05:49:15.000Z</time></trkpt>
        <trkpt lat="28.7835923" lon="104.6149173"><ele>237.11</ele><time>2025-09-26T05:49:23.000Z</time></trkpt>
        <trkpt lat="28.7835923" lon="104.6149173"><ele>237.11</ele><time>2025-09-26T05:49:31.000Z</time></trkpt>
        <trkpt lat="28.7837884" lon="104.6148224"><ele>237.19</ele><time>2025-09-26T05:49:33.000Z</time></trkpt>
        <trkpt lat="28.7837884" lon="104.6148224"><ele>237.19</ele><time>2025-09-26T05:49:39.000Z</time></trkpt>
        <trkpt lat="28.783873" lon="104.6147526"><ele>237.14</ele><time>2025-09-26T05:49:47.000Z</time></trkpt>
        <trkpt lat="28.783873" lon="104.6147526"><ele>237.14</ele><time>2025-09-26T05:49:48.000Z</time></trkpt>
      </trkseg>
  </trk>
</gpx>